<?xml version="1.0" encoding="UTF-8" standalone="no" ?>
<gpx xmlns="http://www.topografix.com/GPX/1/1" xmlns:xsi="http://www.w3.org/2001/XMLSchema-instance" xsi:schemaLocation="http://www.topografix.com/GPX/1/1 http://www.topografix.com/GPX/1/1/gpx.xsd" version="1.1" creator="VisuGPX - https://www.visugpx.com">
  <metadata>
    <name>Bonnefont  18km</name>
    <desc><![CDATA[fait le 11/11/2024 au départ de la Fontaine de Vermenouze.]]></desc>
  </metadata>
  <trk>
    <name><![CDATA[2024-11-11 18:01:47]]></name>
    <extensions>
      <line xmlns="http://www.topografix.com/GPX/gpx_style/0/2">
        <color>0000FF</color>
        <opacity>1</opacity>
        <width>4</width>
      </line>
    </extensions>
    <trkseg>
      <trkpt lat="44.94521" lon="3.776">
        <ele>1191.21</ele>
        <time>2024-11-11T12:49:03Z</time>
      </trkpt>
      <trkpt lat="44.9451" lon="3.77619">
        <ele>1185.92</ele>
        <time>2024-11-11T12:49:20Z</time>
      </trkpt>
      <trkpt lat="44.94499" lon="3.77636">
        <ele>1182.08</ele>
        <time>2024-11-11T12:49:33Z</time>
      </trkpt>
      <trkpt lat="44.94481" lon="3.77653">
        <ele>1179.67</ele>
        <time>2024-11-11T12:49:50Z</time>
      </trkpt>
      <trkpt lat="44.94464" lon="3.77678">
        <ele>1179.19</ele>
        <time>2024-11-11T12:50:11Z</time>
      </trkpt>
      <trkpt lat="44.94447" lon="3.77706">
        <ele>1178.23</ele>
        <time>2024-11-11T12:50:31Z</time>
      </trkpt>
      <trkpt lat="44.94433" lon="3.77728">
        <ele>1177.27</ele>
        <time>2024-11-11T12:50:49Z</time>
      </trkpt>
      <trkpt lat="44.94422" lon="3.77759">
        <ele>1173.43</ele>
        <time>2024-11-11T12:51:08Z</time>
      </trkpt>
      <trkpt lat="44.94404" lon="3.77782">
        <ele>1167.18</ele>
        <time>2024-11-11T12:51:28Z</time>
      </trkpt>
      <trkpt lat="44.94384" lon="3.77807">
        <ele>1161.89</ele>
        <time>2024-11-11T12:51:45Z</time>
      </trkpt>
      <trkpt lat="44.94369" lon="3.77835">
        <ele>1157.56</ele>
        <time>2024-11-11T12:52:04Z</time>
      </trkpt>
      <trkpt lat="44.94356" lon="3.77864">
        <ele>1155.16</ele>
        <time>2024-11-11T12:52:20Z</time>
      </trkpt>
      <trkpt lat="44.94342" lon="3.77895">
        <ele>1150.35</ele>
        <time>2024-11-11T12:52:37Z</time>
      </trkpt>
      <trkpt lat="44.94324" lon="3.77925">
        <ele>1142.18</ele>
        <time>2024-11-11T12:52:56Z</time>
      </trkpt>
      <trkpt lat="44.94311" lon="3.77956">
        <ele>1137.38</ele>
        <time>2024-11-11T12:53:13Z</time>
      </trkpt>
      <trkpt lat="44.94303" lon="3.77973">
        <ele>1137.38</ele>
        <time>2024-11-11T12:53:20Z</time>
      </trkpt>
      <trkpt lat="44.94288" lon="3.77996">
        <ele>1141.7</ele>
        <time>2024-11-11T12:53:29Z</time>
      </trkpt>
      <trkpt lat="44.94269" lon="3.78022">
        <ele>1149.87</ele>
        <time>2024-11-11T12:53:46Z</time>
      </trkpt>
      <trkpt lat="44.94252" lon="3.78044">
        <ele>1155.16</ele>
        <time>2024-11-11T12:54:01Z</time>
      </trkpt>
      <trkpt lat="44.94237" lon="3.78063">
        <ele>1158.05</ele>
        <time>2024-11-11T12:54:17Z</time>
      </trkpt>
      <trkpt lat="44.94244" lon="3.78083">
        <ele>1157.56</ele>
        <time>2024-11-11T12:54:35Z</time>
      </trkpt>
      <trkpt lat="44.94243" lon="3.781">
        <ele>1156.12</ele>
        <time>2024-11-11T12:54:50Z</time>
      </trkpt>
      <trkpt lat="44.94242" lon="3.78111">
        <ele>1155.16</ele>
        <time>2024-11-11T12:54:57Z</time>
      </trkpt>
      <trkpt lat="44.94237" lon="3.78142">
        <ele>1151.32</ele>
        <time>2024-11-11T12:55:16Z</time>
      </trkpt>
      <trkpt lat="44.94229" lon="3.78169">
        <ele>1146.03</ele>
        <time>2024-11-11T12:55:37Z</time>
      </trkpt>
      <trkpt lat="44.9421" lon="3.78207">
        <ele>1142.66</ele>
        <time>2024-11-11T12:55:55Z</time>
      </trkpt>
      <trkpt lat="44.94193" lon="3.78248">
        <ele>1139.78</ele>
        <time>2024-11-11T12:56:16Z</time>
      </trkpt>
      <trkpt lat="44.94177" lon="3.78287">
        <ele>1136.9</ele>
        <time>2024-11-11T12:56:37Z</time>
      </trkpt>
      <trkpt lat="44.94163" lon="3.78327">
        <ele>1134.97</ele>
        <time>2024-11-11T12:56:59Z</time>
      </trkpt>
      <trkpt lat="44.94146" lon="3.78375">
        <ele>1134.01</ele>
        <time>2024-11-11T12:57:22Z</time>
      </trkpt>
      <trkpt lat="44.94136" lon="3.7841">
        <ele>1134.01</ele>
        <time>2024-11-11T12:57:43Z</time>
      </trkpt>
      <trkpt lat="44.94132" lon="3.78447">
        <ele>1134.97</ele>
        <time>2024-11-11T12:57:58Z</time>
      </trkpt>
      <trkpt lat="44.94131" lon="3.78484">
        <ele>1133.05</ele>
        <time>2024-11-11T12:58:14Z</time>
      </trkpt>
      <trkpt lat="44.94126" lon="3.7852">
        <ele>1132.57</ele>
        <time>2024-11-11T12:58:31Z</time>
      </trkpt>
      <trkpt lat="44.94113" lon="3.78554">
        <ele>1128.73</ele>
        <time>2024-11-11T12:58:51Z</time>
      </trkpt>
      <trkpt lat="44.94107" lon="3.78574">
        <ele>1127.28</ele>
        <time>2024-11-11T12:59:00Z</time>
      </trkpt>
      <trkpt lat="44.94097" lon="3.78602">
        <ele>1131.61</ele>
        <time>2024-11-11T12:59:13Z</time>
      </trkpt>
      <trkpt lat="44.94094" lon="3.78611">
        <ele>1133.05</ele>
        <time>2024-11-11T12:59:17Z</time>
      </trkpt>
      <trkpt lat="44.94081" lon="3.78634">
        <ele>1135.94</ele>
        <time>2024-11-11T12:59:32Z</time>
      </trkpt>
      <trkpt lat="44.9407" lon="3.78655">
        <ele>1137.38</ele>
        <time>2024-11-11T12:59:47Z</time>
      </trkpt>
      <trkpt lat="44.94067" lon="3.7866">
        <ele>1137.38</ele>
        <time>2024-11-11T12:59:50Z</time>
      </trkpt>
      <trkpt lat="44.94052" lon="3.78683">
        <ele>1139.3</ele>
        <time>2024-11-11T13:00:08Z</time>
      </trkpt>
      <trkpt lat="44.94045" lon="3.78704">
        <ele>1140.26</ele>
        <time>2024-11-11T13:00:24Z</time>
      </trkpt>
      <trkpt lat="44.94035" lon="3.78722">
        <ele>1142.18</ele>
        <time>2024-11-11T13:00:36Z</time>
      </trkpt>
      <trkpt lat="44.94018" lon="3.78754">
        <ele>1140.74</ele>
        <time>2024-11-11T13:00:58Z</time>
      </trkpt>
      <trkpt lat="44.93995" lon="3.78783">
        <ele>1140.26</ele>
        <time>2024-11-11T13:01:20Z</time>
      </trkpt>
      <trkpt lat="44.93985" lon="3.78807">
        <ele>1143.63</ele>
        <time>2024-11-11T13:01:27Z</time>
      </trkpt>
      <trkpt lat="44.93968" lon="3.78843">
        <ele>1146.99</ele>
        <time>2024-11-11T13:01:41Z</time>
      </trkpt>
      <trkpt lat="44.93946" lon="3.7888">
        <ele>1149.39</ele>
        <time>2024-11-11T13:01:58Z</time>
      </trkpt>
      <trkpt lat="44.93932" lon="3.78902">
        <ele>1149.39</ele>
        <time>2024-11-11T13:02:10Z</time>
      </trkpt>
      <trkpt lat="44.93929" lon="3.78922">
        <ele>1146.03</ele>
        <time>2024-11-11T13:02:24Z</time>
      </trkpt>
      <trkpt lat="44.9394" lon="3.7893">
        <ele>1142.18</ele>
        <time>2024-11-11T13:02:40Z</time>
      </trkpt>
      <trkpt lat="44.93956" lon="3.78937">
        <ele>1137.38</ele>
        <time>2024-11-11T13:02:55Z</time>
      </trkpt>
      <trkpt lat="44.93964" lon="3.78938">
        <ele>1135.94</ele>
        <time>2024-11-11T13:02:58Z</time>
      </trkpt>
      <trkpt lat="44.93971" lon="3.78949">
        <ele>1133.05</ele>
        <time>2024-11-11T13:03:12Z</time>
      </trkpt>
      <trkpt lat="44.93962" lon="3.78962">
        <ele>1129.69</ele>
        <time>2024-11-11T13:03:27Z</time>
      </trkpt>
      <trkpt lat="44.93953" lon="3.78981">
        <ele>1123.44</ele>
        <time>2024-11-11T13:03:45Z</time>
      </trkpt>
      <trkpt lat="44.9394" lon="3.79016">
        <ele>1121.03</ele>
        <time>2024-11-11T13:04:05Z</time>
      </trkpt>
      <trkpt lat="44.93923" lon="3.7904">
        <ele>1115.27</ele>
        <time>2024-11-11T13:04:25Z</time>
      </trkpt>
      <trkpt lat="44.93903" lon="3.79062">
        <ele>1114.79</ele>
        <time>2024-11-11T13:04:43Z</time>
      </trkpt>
      <trkpt lat="44.93882" lon="3.79081">
        <ele>1115.75</ele>
        <time>2024-11-11T13:05:00Z</time>
      </trkpt>
      <trkpt lat="44.9388" lon="3.79082">
        <ele>1115.75</ele>
        <time>2024-11-11T13:05:01Z</time>
      </trkpt>
      <trkpt lat="44.93858" lon="3.79092">
        <ele>1117.19</ele>
        <time>2024-11-11T13:05:19Z</time>
      </trkpt>
      <trkpt lat="44.93836" lon="3.791">
        <ele>1117.67</ele>
        <time>2024-11-11T13:05:34Z</time>
      </trkpt>
      <trkpt lat="44.93819" lon="3.7911">
        <ele>1116.23</ele>
        <time>2024-11-11T13:05:49Z</time>
      </trkpt>
      <trkpt lat="44.93799" lon="3.79137">
        <ele>1115.27</ele>
        <time>2024-11-11T13:06:05Z</time>
      </trkpt>
      <trkpt lat="44.93781" lon="3.79158">
        <ele>1113.34</ele>
        <time>2024-11-11T13:06:22Z</time>
      </trkpt>
      <trkpt lat="44.93774" lon="3.79161">
        <ele>1112.38</ele>
        <time>2024-11-11T13:06:28Z</time>
      </trkpt>
      <trkpt lat="44.93754" lon="3.79183">
        <ele>1114.31</ele>
        <time>2024-11-11T13:06:46Z</time>
      </trkpt>
      <trkpt lat="44.93747" lon="3.79192">
        <ele>1113.82</ele>
        <time>2024-11-11T13:07:01Z</time>
      </trkpt>
      <trkpt lat="44.93746" lon="3.79193">
        <ele>1113.82</ele>
        <time>2024-11-11T13:07:02Z</time>
      </trkpt>
      <trkpt lat="44.93742" lon="3.79202">
        <ele>1114.79</ele>
        <time>2024-11-11T13:07:06Z</time>
      </trkpt>
      <trkpt lat="44.93729" lon="3.79225">
        <ele>1113.82</ele>
        <time>2024-11-11T13:07:21Z</time>
      </trkpt>
      <trkpt lat="44.9371" lon="3.79251">
        <ele>1113.34</ele>
        <time>2024-11-11T13:07:39Z</time>
      </trkpt>
      <trkpt lat="44.93698" lon="3.79279">
        <ele>1113.34</ele>
        <time>2024-11-11T13:07:54Z</time>
      </trkpt>
      <trkpt lat="44.93684" lon="3.79308">
        <ele>1113.34</ele>
        <time>2024-11-11T13:08:09Z</time>
      </trkpt>
      <trkpt lat="44.93675" lon="3.79345">
        <ele>1114.31</ele>
        <time>2024-11-11T13:08:16Z</time>
      </trkpt>
      <trkpt lat="44.93671" lon="3.79357">
        <ele>1114.79</ele>
        <time>2024-11-11T13:08:18Z</time>
      </trkpt>
      <trkpt lat="44.93649" lon="3.79416">
        <ele>1117.67</ele>
        <time>2024-11-11T13:08:27Z</time>
      </trkpt>
      <trkpt lat="44.93639" lon="3.79486">
        <ele>1120.55</ele>
        <time>2024-11-11T13:08:36Z</time>
      </trkpt>
      <trkpt lat="44.93644" lon="3.79618">
        <ele>1122.48</ele>
        <time>2024-11-11T13:08:51Z</time>
      </trkpt>
      <trkpt lat="44.93637" lon="3.79718">
        <ele>1125.36</ele>
        <time>2024-11-11T13:09:04Z</time>
      </trkpt>
      <trkpt lat="44.93634" lon="3.79736">
        <ele>1128.73</ele>
        <time>2024-11-11T13:09:14Z</time>
      </trkpt>
      <trkpt lat="44.93636" lon="3.79735">
        <ele>1130.65</ele>
        <time>2024-11-11T13:09:28Z</time>
      </trkpt>
      <trkpt lat="44.93636" lon="3.79733">
        <ele>1130.65</ele>
        <time>2024-11-11T13:09:29Z</time>
      </trkpt>
      <trkpt lat="44.93636" lon="3.79722">
        <ele>1131.13</ele>
        <time>2024-11-11T13:09:36Z</time>
      </trkpt>
      <trkpt lat="44.93625" lon="3.79708">
        <ele>1131.61</ele>
        <time>2024-11-11T13:09:52Z</time>
      </trkpt>
      <trkpt lat="44.93624" lon="3.79708">
        <ele>1131.61</ele>
        <time>2024-11-11T13:09:53Z</time>
      </trkpt>
      <trkpt lat="44.93622" lon="3.79707">
        <ele>1131.61</ele>
        <time>2024-11-11T13:09:54Z</time>
      </trkpt>
      <trkpt lat="44.93621" lon="3.79707">
        <ele>1132.09</ele>
        <time>2024-11-11T13:09:55Z</time>
      </trkpt>
      <trkpt lat="44.93597" lon="3.79701">
        <ele>1133.53</ele>
        <time>2024-11-11T13:10:12Z</time>
      </trkpt>
      <trkpt lat="44.93577" lon="3.79696">
        <ele>1135.45</ele>
        <time>2024-11-11T13:10:30Z</time>
      </trkpt>
      <trkpt lat="44.93557" lon="3.79682">
        <ele>1137.38</ele>
        <time>2024-11-11T13:10:51Z</time>
      </trkpt>
      <trkpt lat="44.9354" lon="3.79667">
        <ele>1136.42</ele>
        <time>2024-11-11T13:11:09Z</time>
      </trkpt>
      <trkpt lat="44.93516" lon="3.79643">
        <ele>1137.86</ele>
        <time>2024-11-11T13:11:28Z</time>
      </trkpt>
      <trkpt lat="44.93499" lon="3.79634">
        <ele>1138.82</ele>
        <time>2024-11-11T13:11:41Z</time>
      </trkpt>
      <trkpt lat="44.93497" lon="3.79634">
        <ele>1139.3</ele>
        <time>2024-11-11T13:11:42Z</time>
      </trkpt>
      <trkpt lat="44.93485" lon="3.79618">
        <ele>1143.14</ele>
        <time>2024-11-11T13:11:57Z</time>
      </trkpt>
      <trkpt lat="44.93466" lon="3.79592">
        <ele>1145.07</ele>
        <time>2024-11-11T13:12:18Z</time>
      </trkpt>
      <trkpt lat="44.93453" lon="3.79563">
        <ele>1144.59</ele>
        <time>2024-11-11T13:12:36Z</time>
      </trkpt>
      <trkpt lat="44.93441" lon="3.79532">
        <ele>1144.11</ele>
        <time>2024-11-11T13:12:55Z</time>
      </trkpt>
      <trkpt lat="44.93434" lon="3.795">
        <ele>1144.59</ele>
        <time>2024-11-11T13:13:13Z</time>
      </trkpt>
      <trkpt lat="44.9343" lon="3.79482">
        <ele>1144.59</ele>
        <time>2024-11-11T13:13:22Z</time>
      </trkpt>
      <trkpt lat="44.93412" lon="3.79444">
        <ele>1147.95</ele>
        <time>2024-11-11T13:13:39Z</time>
      </trkpt>
      <trkpt lat="44.93397" lon="3.79407">
        <ele>1152.28</ele>
        <time>2024-11-11T13:13:59Z</time>
      </trkpt>
      <trkpt lat="44.93388" lon="3.7937">
        <ele>1154.2</ele>
        <time>2024-11-11T13:14:17Z</time>
      </trkpt>
      <trkpt lat="44.9337" lon="3.79325">
        <ele>1151.32</ele>
        <time>2024-11-11T13:14:40Z</time>
      </trkpt>
      <trkpt lat="44.93352" lon="3.79295">
        <ele>1148.43</ele>
        <time>2024-11-11T13:14:59Z</time>
      </trkpt>
      <trkpt lat="44.93343" lon="3.79267">
        <ele>1148.91</ele>
        <time>2024-11-11T13:15:14Z</time>
      </trkpt>
      <trkpt lat="44.93335" lon="3.79228">
        <ele>1150.35</ele>
        <time>2024-11-11T13:15:32Z</time>
      </trkpt>
      <trkpt lat="44.93336" lon="3.79196">
        <ele>1150.84</ele>
        <time>2024-11-11T13:15:49Z</time>
      </trkpt>
      <trkpt lat="44.93331" lon="3.79156">
        <ele>1151.32</ele>
        <time>2024-11-11T13:16:08Z</time>
      </trkpt>
      <trkpt lat="44.93321" lon="3.79106">
        <ele>1155.64</ele>
        <time>2024-11-11T13:16:27Z</time>
      </trkpt>
      <trkpt lat="44.93318" lon="3.79085">
        <ele>1159.01</ele>
        <time>2024-11-11T13:16:38Z</time>
      </trkpt>
      <trkpt lat="44.93318" lon="3.79079">
        <ele>1159.97</ele>
        <time>2024-11-11T13:16:41Z</time>
      </trkpt>
      <trkpt lat="44.93317" lon="3.79045">
        <ele>1164.29</ele>
        <time>2024-11-11T13:17:00Z</time>
      </trkpt>
      <trkpt lat="44.9331" lon="3.79019">
        <ele>1167.18</ele>
        <time>2024-11-11T13:17:20Z</time>
      </trkpt>
      <trkpt lat="44.93298" lon="3.78993">
        <ele>1166.22</ele>
        <time>2024-11-11T13:17:34Z</time>
      </trkpt>
      <trkpt lat="44.93294" lon="3.78967">
        <ele>1166.22</ele>
        <time>2024-11-11T13:17:44Z</time>
      </trkpt>
      <trkpt lat="44.93294" lon="3.78964">
        <ele>1166.22</ele>
        <time>2024-11-11T13:17:45Z</time>
      </trkpt>
      <trkpt lat="44.9329" lon="3.78935">
        <ele>1167.18</ele>
        <time>2024-11-11T13:17:59Z</time>
      </trkpt>
      <trkpt lat="44.93284" lon="3.78897">
        <ele>1164.29</ele>
        <time>2024-11-11T13:18:19Z</time>
      </trkpt>
      <trkpt lat="44.93285" lon="3.78874">
        <ele>1163.81</ele>
        <time>2024-11-11T13:18:35Z</time>
      </trkpt>
      <trkpt lat="44.93283" lon="3.78873">
        <ele>1164.29</ele>
        <time>2024-11-11T13:18:36Z</time>
      </trkpt>
      <trkpt lat="44.93261" lon="3.78853">
        <ele>1175.83</ele>
        <time>2024-11-11T13:18:52Z</time>
      </trkpt>
      <trkpt lat="44.93261" lon="3.78852">
        <ele>1175.83</ele>
        <time>2024-11-11T13:18:53Z</time>
      </trkpt>
      <trkpt lat="44.93247" lon="3.78834">
        <ele>1176.31</ele>
        <time>2024-11-11T13:19:06Z</time>
      </trkpt>
      <trkpt lat="44.93231" lon="3.78823">
        <ele>1177.27</ele>
        <time>2024-11-11T13:19:20Z</time>
      </trkpt>
      <trkpt lat="44.93225" lon="3.78825">
        <ele>1177.27</ele>
        <time>2024-11-11T13:19:25Z</time>
      </trkpt>
      <trkpt lat="44.93223" lon="3.78826">
        <ele>1177.27</ele>
        <time>2024-11-11T13:19:26Z</time>
      </trkpt>
      <trkpt lat="44.93222" lon="3.78826">
        <ele>1177.27</ele>
        <time>2024-11-11T13:19:27Z</time>
      </trkpt>
      <trkpt lat="44.9322" lon="3.78827">
        <ele>1177.27</ele>
        <time>2024-11-11T13:19:28Z</time>
      </trkpt>
      <trkpt lat="44.93219" lon="3.78827">
        <ele>1177.27</ele>
        <time>2024-11-11T13:19:29Z</time>
      </trkpt>
      <trkpt lat="44.93217" lon="3.78827">
        <ele>1177.27</ele>
        <time>2024-11-11T13:19:30Z</time>
      </trkpt>
      <trkpt lat="44.93216" lon="3.78827">
        <ele>1177.75</ele>
        <time>2024-11-11T13:19:31Z</time>
      </trkpt>
      <trkpt lat="44.93215" lon="3.78827">
        <ele>1177.75</ele>
        <time>2024-11-11T13:19:32Z</time>
      </trkpt>
      <trkpt lat="44.93197" lon="3.78835">
        <ele>1178.23</ele>
        <time>2024-11-11T13:19:46Z</time>
      </trkpt>
      <trkpt lat="44.93179" lon="3.78842">
        <ele>1174.87</ele>
        <time>2024-11-11T13:20:01Z</time>
      </trkpt>
      <trkpt lat="44.93156" lon="3.78851">
        <ele>1172.47</ele>
        <time>2024-11-11T13:20:18Z</time>
      </trkpt>
      <trkpt lat="44.93133" lon="3.78864">
        <ele>1171.98</ele>
        <time>2024-11-11T13:20:33Z</time>
      </trkpt>
      <trkpt lat="44.93112" lon="3.7886">
        <ele>1175.35</ele>
        <time>2024-11-11T13:20:48Z</time>
      </trkpt>
      <trkpt lat="44.93087" lon="3.7884">
        <ele>1178.23</ele>
        <time>2024-11-11T13:21:04Z</time>
      </trkpt>
      <trkpt lat="44.93058" lon="3.78827">
        <ele>1179.67</ele>
        <time>2024-11-11T13:21:21Z</time>
      </trkpt>
      <trkpt lat="44.93029" lon="3.78813">
        <ele>1179.67</ele>
        <time>2024-11-11T13:21:37Z</time>
      </trkpt>
      <trkpt lat="44.93" lon="3.78795">
        <ele>1179.67</ele>
        <time>2024-11-11T13:21:55Z</time>
      </trkpt>
      <trkpt lat="44.92972" lon="3.78774">
        <ele>1180.16</ele>
        <time>2024-11-11T13:22:13Z</time>
      </trkpt>
      <trkpt lat="44.92946" lon="3.78758">
        <ele>1180.16</ele>
        <time>2024-11-11T13:22:32Z</time>
      </trkpt>
      <trkpt lat="44.92926" lon="3.78745">
        <ele>1180.64</ele>
        <time>2024-11-11T13:22:47Z</time>
      </trkpt>
      <trkpt lat="44.92901" lon="3.78726">
        <ele>1180.64</ele>
        <time>2024-11-11T13:23:06Z</time>
      </trkpt>
      <trkpt lat="44.92885" lon="3.78704">
        <ele>1181.12</ele>
        <time>2024-11-11T13:23:23Z</time>
      </trkpt>
      <trkpt lat="44.92879" lon="3.78672">
        <ele>1184</ele>
        <time>2024-11-11T13:23:40Z</time>
      </trkpt>
      <trkpt lat="44.92874" lon="3.78637">
        <ele>1185.92</ele>
        <time>2024-11-11T13:23:57Z</time>
      </trkpt>
      <trkpt lat="44.92871" lon="3.78625">
        <ele>1186.88</ele>
        <time>2024-11-11T13:24:04Z</time>
      </trkpt>
      <trkpt lat="44.92871" lon="3.78623">
        <ele>1186.88</ele>
        <time>2024-11-11T13:24:05Z</time>
      </trkpt>
      <trkpt lat="44.92868" lon="3.78585">
        <ele>1190.25</ele>
        <time>2024-11-11T13:24:26Z</time>
      </trkpt>
      <trkpt lat="44.92867" lon="3.78539">
        <ele>1191.69</ele>
        <time>2024-11-11T13:24:48Z</time>
      </trkpt>
      <trkpt lat="44.9287" lon="3.78488">
        <ele>1193.61</ele>
        <time>2024-11-11T13:25:02Z</time>
      </trkpt>
      <trkpt lat="44.92879" lon="3.78449">
        <ele>1196.02</ele>
        <time>2024-11-11T13:25:25Z</time>
      </trkpt>
      <trkpt lat="44.92899" lon="3.78413">
        <ele>1196.5</ele>
        <time>2024-11-11T13:25:43Z</time>
      </trkpt>
      <trkpt lat="44.92911" lon="3.78382">
        <ele>1197.46</ele>
        <time>2024-11-11T13:26:02Z</time>
      </trkpt>
      <trkpt lat="44.92927" lon="3.78349">
        <ele>1205.15</ele>
        <time>2024-11-11T13:26:23Z</time>
      </trkpt>
      <trkpt lat="44.92933" lon="3.78327">
        <ele>1207.07</ele>
        <time>2024-11-11T13:26:36Z</time>
      </trkpt>
      <trkpt lat="44.92932" lon="3.78325">
        <ele>1207.07</ele>
        <time>2024-11-11T13:26:37Z</time>
      </trkpt>
      <trkpt lat="44.9291" lon="3.7831">
        <ele>1204.67</ele>
        <time>2024-11-11T13:26:54Z</time>
      </trkpt>
      <trkpt lat="44.92886" lon="3.78291">
        <ele>1201.3</ele>
        <time>2024-11-11T13:27:11Z</time>
      </trkpt>
      <trkpt lat="44.92859" lon="3.7827">
        <ele>1198.9</ele>
        <time>2024-11-11T13:27:29Z</time>
      </trkpt>
      <trkpt lat="44.92835" lon="3.78254">
        <ele>1199.86</ele>
        <time>2024-11-11T13:27:45Z</time>
      </trkpt>
      <trkpt lat="44.92808" lon="3.78233">
        <ele>1200.34</ele>
        <time>2024-11-11T13:28:04Z</time>
      </trkpt>
      <trkpt lat="44.92781" lon="3.78211">
        <ele>1200.34</ele>
        <time>2024-11-11T13:28:23Z</time>
      </trkpt>
      <trkpt lat="44.92751" lon="3.78194">
        <ele>1201.79</ele>
        <time>2024-11-11T13:28:38Z</time>
      </trkpt>
      <trkpt lat="44.92722" lon="3.78182">
        <ele>1202.27</ele>
        <time>2024-11-11T13:28:58Z</time>
      </trkpt>
      <trkpt lat="44.92695" lon="3.78162">
        <ele>1203.23</ele>
        <time>2024-11-11T13:29:16Z</time>
      </trkpt>
      <trkpt lat="44.92669" lon="3.78147">
        <ele>1204.67</ele>
        <time>2024-11-11T13:29:31Z</time>
      </trkpt>
      <trkpt lat="44.92628" lon="3.78123">
        <ele>1206.11</ele>
        <time>2024-11-11T13:29:41Z</time>
      </trkpt>
      <trkpt lat="44.92553" lon="3.78077">
        <ele>1208.51</ele>
        <time>2024-11-11T13:29:58Z</time>
      </trkpt>
      <trkpt lat="44.92466" lon="3.78021">
        <ele>1212.84</ele>
        <time>2024-11-11T13:30:16Z</time>
      </trkpt>
      <trkpt lat="44.92413" lon="3.77981">
        <ele>1217.17</ele>
        <time>2024-11-11T13:30:31Z</time>
      </trkpt>
      <trkpt lat="44.92389" lon="3.7796">
        <ele>1217.17</ele>
        <time>2024-11-11T13:30:47Z</time>
      </trkpt>
      <trkpt lat="44.92367" lon="3.77947">
        <ele>1215.72</ele>
        <time>2024-11-11T13:31:00Z</time>
      </trkpt>
      <trkpt lat="44.92345" lon="3.77946">
        <ele>1215.24</ele>
        <time>2024-11-11T13:31:13Z</time>
      </trkpt>
      <trkpt lat="44.92323" lon="3.7793">
        <ele>1216.21</ele>
        <time>2024-11-11T13:31:28Z</time>
      </trkpt>
      <trkpt lat="44.92316" lon="3.77924">
        <ele>1216.69</ele>
        <time>2024-11-11T13:31:35Z</time>
      </trkpt>
      <trkpt lat="44.92315" lon="3.77923">
        <ele>1216.69</ele>
        <time>2024-11-11T13:31:36Z</time>
      </trkpt>
      <trkpt lat="44.92313" lon="3.77923">
        <ele>1216.69</ele>
        <time>2024-11-11T13:31:37Z</time>
      </trkpt>
      <trkpt lat="44.92312" lon="3.77923">
        <ele>1216.69</ele>
        <time>2024-11-11T13:31:38Z</time>
      </trkpt>
      <trkpt lat="44.92311" lon="3.77923">
        <ele>1216.21</ele>
        <time>2024-11-11T13:31:39Z</time>
      </trkpt>
      <trkpt lat="44.92286" lon="3.77917">
        <ele>1215.72</ele>
        <time>2024-11-11T13:31:53Z</time>
      </trkpt>
      <trkpt lat="44.9226" lon="3.7791">
        <ele>1215.72</ele>
        <time>2024-11-11T13:32:10Z</time>
      </trkpt>
      <trkpt lat="44.92236" lon="3.779">
        <ele>1213.8</ele>
        <time>2024-11-11T13:32:27Z</time>
      </trkpt>
      <trkpt lat="44.9221" lon="3.7789">
        <ele>1212.36</ele>
        <time>2024-11-11T13:32:45Z</time>
      </trkpt>
      <trkpt lat="44.9218" lon="3.77881">
        <ele>1209.96</ele>
        <time>2024-11-11T13:33:06Z</time>
      </trkpt>
      <trkpt lat="44.92166" lon="3.77877">
        <ele>1208.51</ele>
        <time>2024-11-11T13:33:16Z</time>
      </trkpt>
      <trkpt lat="44.92164" lon="3.77876">
        <ele>1208.51</ele>
        <time>2024-11-11T13:33:17Z</time>
      </trkpt>
      <trkpt lat="44.92139" lon="3.77866">
        <ele>1205.63</ele>
        <time>2024-11-11T13:33:33Z</time>
      </trkpt>
      <trkpt lat="44.92115" lon="3.77856">
        <ele>1201.79</ele>
        <time>2024-11-11T13:33:50Z</time>
      </trkpt>
      <trkpt lat="44.9209" lon="3.77849">
        <ele>1197.94</ele>
        <time>2024-11-11T13:34:06Z</time>
      </trkpt>
      <trkpt lat="44.92062" lon="3.77837">
        <ele>1197.46</ele>
        <time>2024-11-11T13:34:21Z</time>
      </trkpt>
      <trkpt lat="44.92027" lon="3.77823">
        <ele>1202.27</ele>
        <time>2024-11-11T13:34:40Z</time>
      </trkpt>
      <trkpt lat="44.91997" lon="3.77815">
        <ele>1205.15</ele>
        <time>2024-11-11T13:34:59Z</time>
      </trkpt>
      <trkpt lat="44.91972" lon="3.7781">
        <ele>1209.48</ele>
        <time>2024-11-11T13:35:16Z</time>
      </trkpt>
      <trkpt lat="44.91955" lon="3.778">
        <ele>1211.4</ele>
        <time>2024-11-11T13:35:28Z</time>
      </trkpt>
      <trkpt lat="44.91955" lon="3.77798">
        <ele>1211.88</ele>
        <time>2024-11-11T13:35:29Z</time>
      </trkpt>
      <trkpt lat="44.91954" lon="3.77795">
        <ele>1211.88</ele>
        <time>2024-11-11T13:35:31Z</time>
      </trkpt>
      <trkpt lat="44.91937" lon="3.77768">
        <ele>1215.72</ele>
        <time>2024-11-11T13:35:48Z</time>
      </trkpt>
      <trkpt lat="44.91925" lon="3.77751">
        <ele>1218.61</ele>
        <time>2024-11-11T13:36:01Z</time>
      </trkpt>
      <trkpt lat="44.91913" lon="3.77731">
        <ele>1220.05</ele>
        <time>2024-11-11T13:36:18Z</time>
      </trkpt>
      <trkpt lat="44.91899" lon="3.77704">
        <ele>1221.01</ele>
        <time>2024-11-11T13:36:33Z</time>
      </trkpt>
      <trkpt lat="44.91893" lon="3.77667">
        <ele>1220.05</ele>
        <time>2024-11-11T13:36:52Z</time>
      </trkpt>
      <trkpt lat="44.91886" lon="3.77638">
        <ele>1223.42</ele>
        <time>2024-11-11T13:37:10Z</time>
      </trkpt>
      <trkpt lat="44.91876" lon="3.77607">
        <ele>1225.82</ele>
        <time>2024-11-11T13:37:26Z</time>
      </trkpt>
      <trkpt lat="44.91868" lon="3.77579">
        <ele>1229.66</ele>
        <time>2024-11-11T13:37:42Z</time>
      </trkpt>
      <trkpt lat="44.91864" lon="3.7754">
        <ele>1228.7</ele>
        <time>2024-11-11T13:38:03Z</time>
      </trkpt>
      <trkpt lat="44.91853" lon="3.77502">
        <ele>1230.14</ele>
        <time>2024-11-11T13:38:22Z</time>
      </trkpt>
      <trkpt lat="44.91838" lon="3.77469">
        <ele>1232.55</ele>
        <time>2024-11-11T13:38:44Z</time>
      </trkpt>
      <trkpt lat="44.91818" lon="3.77436">
        <ele>1233.51</ele>
        <time>2024-11-11T13:39:02Z</time>
      </trkpt>
      <trkpt lat="44.91816" lon="3.77423">
        <ele>1238.32</ele>
        <time>2024-11-11T13:39:12Z</time>
      </trkpt>
      <trkpt lat="44.91815" lon="3.77401">
        <ele>1238.8</ele>
        <time>2024-11-11T13:39:25Z</time>
      </trkpt>
      <trkpt lat="44.91809" lon="3.77366">
        <ele>1237.83</ele>
        <time>2024-11-11T13:39:42Z</time>
      </trkpt>
      <trkpt lat="44.91785" lon="3.77365">
        <ele>1237.35</ele>
        <time>2024-11-11T13:40:00Z</time>
      </trkpt>
      <trkpt lat="44.91782" lon="3.77369">
        <ele>1238.32</ele>
        <time>2024-11-11T13:40:03Z</time>
      </trkpt>
      <trkpt lat="44.91766" lon="3.77386">
        <ele>1237.83</ele>
        <time>2024-11-11T13:40:17Z</time>
      </trkpt>
      <trkpt lat="44.9175" lon="3.77418">
        <ele>1234.47</ele>
        <time>2024-11-11T13:40:35Z</time>
      </trkpt>
      <trkpt lat="44.91741" lon="3.77457">
        <ele>1231.59</ele>
        <time>2024-11-11T13:40:54Z</time>
      </trkpt>
      <trkpt lat="44.91737" lon="3.77487">
        <ele>1228.7</ele>
        <time>2024-11-11T13:41:07Z</time>
      </trkpt>
      <trkpt lat="44.91724" lon="3.77513">
        <ele>1227.26</ele>
        <time>2024-11-11T13:41:22Z</time>
      </trkpt>
      <trkpt lat="44.91709" lon="3.77547">
        <ele>1222.93</ele>
        <time>2024-11-11T13:41:41Z</time>
      </trkpt>
      <trkpt lat="44.91697" lon="3.77584">
        <ele>1219.57</ele>
        <time>2024-11-11T13:42:00Z</time>
      </trkpt>
      <trkpt lat="44.91691" lon="3.77628">
        <ele>1218.13</ele>
        <time>2024-11-11T13:42:21Z</time>
      </trkpt>
      <trkpt lat="44.91679" lon="3.7766">
        <ele>1221.97</ele>
        <time>2024-11-11T13:42:40Z</time>
      </trkpt>
      <trkpt lat="44.91671" lon="3.77686">
        <ele>1224.38</ele>
        <time>2024-11-11T13:42:56Z</time>
      </trkpt>
      <trkpt lat="44.91672" lon="3.77717">
        <ele>1224.38</ele>
        <time>2024-11-11T13:43:14Z</time>
      </trkpt>
      <trkpt lat="44.91664" lon="3.77768">
        <ele>1224.86</ele>
        <time>2024-11-11T13:43:32Z</time>
      </trkpt>
      <trkpt lat="44.91656" lon="3.77815">
        <ele>1229.18</ele>
        <time>2024-11-11T13:43:53Z</time>
      </trkpt>
      <trkpt lat="44.91658" lon="3.77824">
        <ele>1229.18</ele>
        <time>2024-11-11T13:44:00Z</time>
      </trkpt>
      <trkpt lat="44.91661" lon="3.77858">
        <ele>1227.26</ele>
        <time>2024-11-11T13:44:18Z</time>
      </trkpt>
      <trkpt lat="44.91661" lon="3.77884">
        <ele>1222.93</ele>
        <time>2024-11-11T13:44:34Z</time>
      </trkpt>
      <trkpt lat="44.91661" lon="3.77906">
        <ele>1219.09</ele>
        <time>2024-11-11T13:44:52Z</time>
      </trkpt>
      <trkpt lat="44.91664" lon="3.77946">
        <ele>1217.65</ele>
        <time>2024-11-11T13:45:10Z</time>
      </trkpt>
      <trkpt lat="44.9166" lon="3.77981">
        <ele>1221.01</ele>
        <time>2024-11-11T13:45:29Z</time>
      </trkpt>
      <trkpt lat="44.91658" lon="3.7802">
        <ele>1216.69</ele>
        <time>2024-11-11T13:45:47Z</time>
      </trkpt>
      <trkpt lat="44.91655" lon="3.78037">
        <ele>1215.24</ele>
        <time>2024-11-11T13:45:57Z</time>
      </trkpt>
      <trkpt lat="44.91653" lon="3.78065">
        <ele>1216.21</ele>
        <time>2024-11-11T13:46:13Z</time>
      </trkpt>
      <trkpt lat="44.91645" lon="3.78112">
        <ele>1219.57</ele>
        <time>2024-11-11T13:46:33Z</time>
      </trkpt>
      <trkpt lat="44.91641" lon="3.78126">
        <ele>1220.05</ele>
        <time>2024-11-11T13:46:40Z</time>
      </trkpt>
      <trkpt lat="44.91632" lon="3.78163">
        <ele>1220.05</ele>
        <time>2024-11-11T13:46:58Z</time>
      </trkpt>
      <trkpt lat="44.91622" lon="3.7819">
        <ele>1217.17</ele>
        <time>2024-11-11T13:47:13Z</time>
      </trkpt>
      <trkpt lat="44.9161" lon="3.78223">
        <ele>1216.69</ele>
        <time>2024-11-11T13:47:30Z</time>
      </trkpt>
      <trkpt lat="44.91603" lon="3.78253">
        <ele>1217.65</ele>
        <time>2024-11-11T13:47:44Z</time>
      </trkpt>
      <trkpt lat="44.91598" lon="3.78283">
        <ele>1218.61</ele>
        <time>2024-11-11T13:48:00Z</time>
      </trkpt>
      <trkpt lat="44.91597" lon="3.78285">
        <ele>1218.61</ele>
        <time>2024-11-11T13:48:01Z</time>
      </trkpt>
      <trkpt lat="44.91596" lon="3.78289">
        <ele>1218.13</ele>
        <time>2024-11-11T13:48:03Z</time>
      </trkpt>
      <trkpt lat="44.91596" lon="3.78291">
        <ele>1218.13</ele>
        <time>2024-11-11T13:48:04Z</time>
      </trkpt>
      <trkpt lat="44.91596" lon="3.78293">
        <ele>1217.65</ele>
        <time>2024-11-11T13:48:05Z</time>
      </trkpt>
      <trkpt lat="44.91595" lon="3.78296">
        <ele>1217.65</ele>
        <time>2024-11-11T13:48:06Z</time>
      </trkpt>
      <trkpt lat="44.91594" lon="3.78298">
        <ele>1217.17</ele>
        <time>2024-11-11T13:48:07Z</time>
      </trkpt>
      <trkpt lat="44.91594" lon="3.78301">
        <ele>1217.17</ele>
        <time>2024-11-11T13:48:08Z</time>
      </trkpt>
      <trkpt lat="44.91593" lon="3.78304">
        <ele>1216.69</ele>
        <time>2024-11-11T13:48:09Z</time>
      </trkpt>
      <trkpt lat="44.9158" lon="3.78353">
        <ele>1216.21</ele>
        <time>2024-11-11T13:48:29Z</time>
      </trkpt>
      <trkpt lat="44.91571" lon="3.7839">
        <ele>1221.97</ele>
        <time>2024-11-11T13:48:42Z</time>
      </trkpt>
      <trkpt lat="44.91563" lon="3.78425">
        <ele>1224.86</ele>
        <time>2024-11-11T13:48:57Z</time>
      </trkpt>
      <trkpt lat="44.91558" lon="3.78454">
        <ele>1229.18</ele>
        <time>2024-11-11T13:49:12Z</time>
      </trkpt>
      <trkpt lat="44.91551" lon="3.78489">
        <ele>1229.66</ele>
        <time>2024-11-11T13:49:31Z</time>
      </trkpt>
      <trkpt lat="44.91543" lon="3.78523">
        <ele>1228.22</ele>
        <time>2024-11-11T13:49:48Z</time>
      </trkpt>
      <trkpt lat="44.91533" lon="3.78547">
        <ele>1226.3</ele>
        <time>2024-11-11T13:50:05Z</time>
      </trkpt>
      <trkpt lat="44.9152" lon="3.78584">
        <ele>1221.01</ele>
        <time>2024-11-11T13:50:29Z</time>
      </trkpt>
      <trkpt lat="44.91506" lon="3.7862">
        <ele>1219.57</ele>
        <time>2024-11-11T13:50:48Z</time>
      </trkpt>
      <trkpt lat="44.91496" lon="3.78651">
        <ele>1221.97</ele>
        <time>2024-11-11T13:51:05Z</time>
      </trkpt>
      <trkpt lat="44.91481" lon="3.78691">
        <ele>1222.45</ele>
        <time>2024-11-11T13:51:26Z</time>
      </trkpt>
      <trkpt lat="44.91462" lon="3.78738">
        <ele>1222.45</ele>
        <time>2024-11-11T13:51:47Z</time>
      </trkpt>
      <trkpt lat="44.9145" lon="3.78789">
        <ele>1223.9</ele>
        <time>2024-11-11T13:52:07Z</time>
      </trkpt>
      <trkpt lat="44.91442" lon="3.78838">
        <ele>1221.01</ele>
        <time>2024-11-11T13:52:31Z</time>
      </trkpt>
      <trkpt lat="44.91429" lon="3.78865">
        <ele>1213.8</ele>
        <time>2024-11-11T13:52:48Z</time>
      </trkpt>
      <trkpt lat="44.91413" lon="3.7891">
        <ele>1209.96</ele>
        <time>2024-11-11T13:53:07Z</time>
      </trkpt>
      <trkpt lat="44.91396" lon="3.7894">
        <ele>1214.76</ele>
        <time>2024-11-11T13:53:22Z</time>
      </trkpt>
      <trkpt lat="44.9138" lon="3.78964">
        <ele>1217.65</ele>
        <time>2024-11-11T13:53:40Z</time>
      </trkpt>
      <trkpt lat="44.91365" lon="3.78985">
        <ele>1219.09</ele>
        <time>2024-11-11T13:53:56Z</time>
      </trkpt>
      <trkpt lat="44.91346" lon="3.78999">
        <ele>1215.72</ele>
        <time>2024-11-11T13:54:16Z</time>
      </trkpt>
      <trkpt lat="44.91321" lon="3.79026">
        <ele>1218.13</ele>
        <time>2024-11-11T13:54:32Z</time>
      </trkpt>
      <trkpt lat="44.91305" lon="3.79051">
        <ele>1224.86</ele>
        <time>2024-11-11T13:54:47Z</time>
      </trkpt>
      <trkpt lat="44.91288" lon="3.79085">
        <ele>1224.38</ele>
        <time>2024-11-11T13:55:05Z</time>
      </trkpt>
      <trkpt lat="44.91276" lon="3.79115">
        <ele>1222.45</ele>
        <time>2024-11-11T13:55:19Z</time>
      </trkpt>
      <trkpt lat="44.91265" lon="3.79151">
        <ele>1220.53</ele>
        <time>2024-11-11T13:55:37Z</time>
      </trkpt>
      <trkpt lat="44.91246" lon="3.79192">
        <ele>1214.76</ele>
        <time>2024-11-11T13:55:58Z</time>
      </trkpt>
      <trkpt lat="44.91233" lon="3.79227">
        <ele>1208.03</ele>
        <time>2024-11-11T13:56:16Z</time>
      </trkpt>
      <trkpt lat="44.91235" lon="3.79264">
        <ele>1202.75</ele>
        <time>2024-11-11T13:56:32Z</time>
      </trkpt>
      <trkpt lat="44.9122" lon="3.79296">
        <ele>1198.9</ele>
        <time>2024-11-11T13:56:50Z</time>
      </trkpt>
      <trkpt lat="44.91206" lon="3.7932">
        <ele>1199.38</ele>
        <time>2024-11-11T13:57:07Z</time>
      </trkpt>
      <trkpt lat="44.91201" lon="3.79323">
        <ele>1205.63</ele>
        <time>2024-11-11T13:57:23Z</time>
      </trkpt>
      <trkpt lat="44.91199" lon="3.79322">
        <ele>1206.11</ele>
        <time>2024-11-11T13:57:40Z</time>
      </trkpt>
      <trkpt lat="44.91197" lon="3.79321">
        <ele>1206.11</ele>
        <time>2024-11-11T13:58:06Z</time>
      </trkpt>
      <trkpt lat="44.91202" lon="3.79319">
        <ele>1205.15</ele>
        <time>2024-11-11T13:58:28Z</time>
      </trkpt>
      <trkpt lat="44.91207" lon="3.79304">
        <ele>1205.15</ele>
        <time>2024-11-11T13:58:42Z</time>
      </trkpt>
      <trkpt lat="44.91208" lon="3.79302">
        <ele>1205.15</ele>
        <time>2024-11-11T13:58:43Z</time>
      </trkpt>
      <trkpt lat="44.91209" lon="3.79299">
        <ele>1205.15</ele>
        <time>2024-11-11T13:58:44Z</time>
      </trkpt>
      <trkpt lat="44.91209" lon="3.79297">
        <ele>1205.15</ele>
        <time>2024-11-11T13:58:45Z</time>
      </trkpt>
      <trkpt lat="44.9121" lon="3.79294">
        <ele>1204.67</ele>
        <time>2024-11-11T13:58:46Z</time>
      </trkpt>
      <trkpt lat="44.91209" lon="3.79278">
        <ele>1203.71</ele>
        <time>2024-11-11T13:59:02Z</time>
      </trkpt>
      <trkpt lat="44.91205" lon="3.79276">
        <ele>1203.71</ele>
        <time>2024-11-11T13:59:21Z</time>
      </trkpt>
      <trkpt lat="44.91204" lon="3.79276">
        <ele>1205.15</ele>
        <time>2024-11-11T13:59:40Z</time>
      </trkpt>
      <trkpt lat="44.91206" lon="3.79275">
        <ele>1206.11</ele>
        <time>2024-11-11T13:59:56Z</time>
      </trkpt>
      <trkpt lat="44.91205" lon="3.79274">
        <ele>1203.23</ele>
        <time>2024-11-11T14:00:27Z</time>
      </trkpt>
      <trkpt lat="44.91204" lon="3.79274">
        <ele>1204.19</ele>
        <time>2024-11-11T14:00:51Z</time>
      </trkpt>
      <trkpt lat="44.91204" lon="3.79272">
        <ele>1203.71</ele>
        <time>2024-11-11T14:01:11Z</time>
      </trkpt>
      <trkpt lat="44.91206" lon="3.79275">
        <ele>1201.79</ele>
        <time>2024-11-11T14:01:39Z</time>
      </trkpt>
      <trkpt lat="44.91213" lon="3.79268">
        <ele>1202.75</ele>
        <time>2024-11-11T14:01:55Z</time>
      </trkpt>
      <trkpt lat="44.91215" lon="3.79276">
        <ele>1203.23</ele>
        <time>2024-11-11T14:02:04Z</time>
      </trkpt>
      <trkpt lat="44.91211" lon="3.7928">
        <ele>1204.19</ele>
        <time>2024-11-11T14:02:09Z</time>
      </trkpt>
      <trkpt lat="44.9121" lon="3.79281">
        <ele>1204.67</ele>
        <time>2024-11-11T14:02:10Z</time>
      </trkpt>
      <trkpt lat="44.91209" lon="3.79282">
        <ele>1205.15</ele>
        <time>2024-11-11T14:02:11Z</time>
      </trkpt>
      <trkpt lat="44.91209" lon="3.79284">
        <ele>1205.63</ele>
        <time>2024-11-11T14:02:12Z</time>
      </trkpt>
      <trkpt lat="44.91209" lon="3.79285">
        <ele>1206.11</ele>
        <time>2024-11-11T14:02:13Z</time>
      </trkpt>
      <trkpt lat="44.91208" lon="3.79287">
        <ele>1206.11</ele>
        <time>2024-11-11T14:02:14Z</time>
      </trkpt>
      <trkpt lat="44.91185" lon="3.79385">
        <ele>1197.46</ele>
        <time>2024-11-11T14:03:37Z</time>
      </trkpt>
      <trkpt lat="44.91185" lon="3.79386">
        <ele>1196.02</ele>
        <time>2024-11-11T14:03:38Z</time>
      </trkpt>
      <trkpt lat="44.91183" lon="3.79401">
        <ele>1196.02</ele>
        <time>2024-11-11T14:03:46Z</time>
      </trkpt>
      <trkpt lat="44.91166" lon="3.79423">
        <ele>1200.34</ele>
        <time>2024-11-11T14:04:02Z</time>
      </trkpt>
      <trkpt lat="44.91155" lon="3.79446">
        <ele>1205.15</ele>
        <time>2024-11-11T14:04:14Z</time>
      </trkpt>
      <trkpt lat="44.91144" lon="3.79472">
        <ele>1208.03</ele>
        <time>2024-11-11T14:04:32Z</time>
      </trkpt>
      <trkpt lat="44.91132" lon="3.7949">
        <ele>1208.51</ele>
        <time>2024-11-11T14:04:49Z</time>
      </trkpt>
      <trkpt lat="44.91121" lon="3.79509">
        <ele>1209</ele>
        <time>2024-11-11T14:05:04Z</time>
      </trkpt>
      <trkpt lat="44.91119" lon="3.79512">
        <ele>1209.48</ele>
        <time>2024-11-11T14:05:06Z</time>
      </trkpt>
      <trkpt lat="44.91103" lon="3.7954">
        <ele>1209.96</ele>
        <time>2024-11-11T14:05:24Z</time>
      </trkpt>
      <trkpt lat="44.91088" lon="3.79566">
        <ele>1211.4</ele>
        <time>2024-11-11T14:05:44Z</time>
      </trkpt>
      <trkpt lat="44.91078" lon="3.79582">
        <ele>1212.84</ele>
        <time>2024-11-11T14:05:55Z</time>
      </trkpt>
      <trkpt lat="44.91071" lon="3.79591">
        <ele>1213.32</ele>
        <time>2024-11-11T14:06:00Z</time>
      </trkpt>
      <trkpt lat="44.9106" lon="3.79607">
        <ele>1214.76</ele>
        <time>2024-11-11T14:06:09Z</time>
      </trkpt>
      <trkpt lat="44.9104" lon="3.79637">
        <ele>1217.65</ele>
        <time>2024-11-11T14:06:27Z</time>
      </trkpt>
      <trkpt lat="44.91022" lon="3.79662">
        <ele>1214.76</ele>
        <time>2024-11-11T14:06:44Z</time>
      </trkpt>
      <trkpt lat="44.91001" lon="3.79682">
        <ele>1212.84</ele>
        <time>2024-11-11T14:07:04Z</time>
      </trkpt>
      <trkpt lat="44.90983" lon="3.79681">
        <ele>1211.88</ele>
        <time>2024-11-11T14:07:20Z</time>
      </trkpt>
      <trkpt lat="44.90981" lon="3.79681">
        <ele>1211.88</ele>
        <time>2024-11-11T14:07:22Z</time>
      </trkpt>
      <trkpt lat="44.90971" lon="3.79687">
        <ele>1212.84</ele>
        <time>2024-11-11T14:07:40Z</time>
      </trkpt>
      <trkpt lat="44.90976" lon="3.79689">
        <ele>1213.32</ele>
        <time>2024-11-11T14:08:01Z</time>
      </trkpt>
      <trkpt lat="44.90974" lon="3.79672">
        <ele>1209.96</ele>
        <time>2024-11-11T14:08:16Z</time>
      </trkpt>
      <trkpt lat="44.90961" lon="3.79656">
        <ele>1206.11</ele>
        <time>2024-11-11T14:08:33Z</time>
      </trkpt>
      <trkpt lat="44.90944" lon="3.79637">
        <ele>1200.82</ele>
        <time>2024-11-11T14:08:50Z</time>
      </trkpt>
      <trkpt lat="44.90929" lon="3.79634">
        <ele>1199.38</ele>
        <time>2024-11-11T14:09:09Z</time>
      </trkpt>
      <trkpt lat="44.90905" lon="3.79639">
        <ele>1199.86</ele>
        <time>2024-11-11T14:09:26Z</time>
      </trkpt>
      <trkpt lat="44.90884" lon="3.79633">
        <ele>1197.94</ele>
        <time>2024-11-11T14:09:44Z</time>
      </trkpt>
      <trkpt lat="44.90861" lon="3.79629">
        <ele>1196.98</ele>
        <time>2024-11-11T14:10:03Z</time>
      </trkpt>
      <trkpt lat="44.90846" lon="3.79609">
        <ele>1196.02</ele>
        <time>2024-11-11T14:10:21Z</time>
      </trkpt>
      <trkpt lat="44.90836" lon="3.79589">
        <ele>1194.58</ele>
        <time>2024-11-11T14:10:38Z</time>
      </trkpt>
      <trkpt lat="44.90811" lon="3.79576">
        <ele>1195.06</ele>
        <time>2024-11-11T14:10:59Z</time>
      </trkpt>
      <trkpt lat="44.9079" lon="3.79564">
        <ele>1194.58</ele>
        <time>2024-11-11T14:11:16Z</time>
      </trkpt>
      <trkpt lat="44.9077" lon="3.79549">
        <ele>1194.09</ele>
        <time>2024-11-11T14:11:38Z</time>
      </trkpt>
      <trkpt lat="44.90751" lon="3.79543">
        <ele>1191.21</ele>
        <time>2024-11-11T14:11:55Z</time>
      </trkpt>
      <trkpt lat="44.90724" lon="3.79534">
        <ele>1190.73</ele>
        <time>2024-11-11T14:12:16Z</time>
      </trkpt>
      <trkpt lat="44.90706" lon="3.79515">
        <ele>1192.17</ele>
        <time>2024-11-11T14:12:35Z</time>
      </trkpt>
      <trkpt lat="44.9069" lon="3.79502">
        <ele>1192.17</ele>
        <time>2024-11-11T14:12:50Z</time>
      </trkpt>
      <trkpt lat="44.90675" lon="3.79489">
        <ele>1190.25</ele>
        <time>2024-11-11T14:13:05Z</time>
      </trkpt>
      <trkpt lat="44.9066" lon="3.79492">
        <ele>1189.29</ele>
        <time>2024-11-11T14:13:22Z</time>
      </trkpt>
      <trkpt lat="44.90657" lon="3.79484">
        <ele>1187.85</ele>
        <time>2024-11-11T14:13:29Z</time>
      </trkpt>
      <trkpt lat="44.90651" lon="3.79471">
        <ele>1185.92</ele>
        <time>2024-11-11T14:13:38Z</time>
      </trkpt>
      <trkpt lat="44.90637" lon="3.79447">
        <ele>1184.48</ele>
        <time>2024-11-11T14:13:54Z</time>
      </trkpt>
      <trkpt lat="44.90627" lon="3.79431">
        <ele>1183.52</ele>
        <time>2024-11-11T14:14:10Z</time>
      </trkpt>
      <trkpt lat="44.90613" lon="3.79403">
        <ele>1183.04</ele>
        <time>2024-11-11T14:14:28Z</time>
      </trkpt>
      <trkpt lat="44.90612" lon="3.79402">
        <ele>1183.04</ele>
        <time>2024-11-11T14:14:29Z</time>
      </trkpt>
      <trkpt lat="44.90597" lon="3.79374">
        <ele>1183.04</ele>
        <time>2024-11-11T14:14:44Z</time>
      </trkpt>
      <trkpt lat="44.90587" lon="3.79346">
        <ele>1182.08</ele>
        <time>2024-11-11T14:14:55Z</time>
      </trkpt>
      <trkpt lat="44.90587" lon="3.79343">
        <ele>1181.6</ele>
        <time>2024-11-11T14:14:56Z</time>
      </trkpt>
      <trkpt lat="44.9058" lon="3.79313">
        <ele>1181.6</ele>
        <time>2024-11-11T14:15:10Z</time>
      </trkpt>
      <trkpt lat="44.90578" lon="3.79287">
        <ele>1179.67</ele>
        <time>2024-11-11T14:15:24Z</time>
      </trkpt>
      <trkpt lat="44.90562" lon="3.79267">
        <ele>1184.96</ele>
        <time>2024-11-11T14:15:38Z</time>
      </trkpt>
      <trkpt lat="44.90558" lon="3.7926">
        <ele>1187.85</ele>
        <time>2024-11-11T14:15:44Z</time>
      </trkpt>
      <trkpt lat="44.90558" lon="3.79258">
        <ele>1188.33</ele>
        <time>2024-11-11T14:15:45Z</time>
      </trkpt>
      <trkpt lat="44.90559" lon="3.79246">
        <ele>1190.25</ele>
        <time>2024-11-11T14:16:00Z</time>
      </trkpt>
      <trkpt lat="44.90555" lon="3.7924">
        <ele>1189.77</ele>
        <time>2024-11-11T14:16:22Z</time>
      </trkpt>
      <trkpt lat="44.90552" lon="3.79236">
        <ele>1190.73</ele>
        <time>2024-11-11T14:16:40Z</time>
      </trkpt>
      <trkpt lat="44.9055" lon="3.79235">
        <ele>1191.69</ele>
        <time>2024-11-11T14:16:55Z</time>
      </trkpt>
      <trkpt lat="44.90548" lon="3.79236">
        <ele>1193.13</ele>
        <time>2024-11-11T14:17:15Z</time>
      </trkpt>
      <trkpt lat="44.90545" lon="3.79236">
        <ele>1195.06</ele>
        <time>2024-11-11T14:17:41Z</time>
      </trkpt>
      <trkpt lat="44.90544" lon="3.79243">
        <ele>1195.54</ele>
        <time>2024-11-11T14:17:56Z</time>
      </trkpt>
      <trkpt lat="44.90533" lon="3.79252">
        <ele>1196.5</ele>
        <time>2024-11-11T14:18:13Z</time>
      </trkpt>
      <trkpt lat="44.90522" lon="3.79258">
        <ele>1199.86</ele>
        <time>2024-11-11T14:18:26Z</time>
      </trkpt>
      <trkpt lat="44.90516" lon="3.79259">
        <ele>1201.79</ele>
        <time>2024-11-11T14:18:47Z</time>
      </trkpt>
      <trkpt lat="44.90513" lon="3.79254">
        <ele>1202.75</ele>
        <time>2024-11-11T14:19:13Z</time>
      </trkpt>
      <trkpt lat="44.90518" lon="3.79247">
        <ele>1201.79</ele>
        <time>2024-11-11T14:19:38Z</time>
      </trkpt>
      <trkpt lat="44.90514" lon="3.79252">
        <ele>1197.94</ele>
        <time>2024-11-11T14:20:03Z</time>
      </trkpt>
      <trkpt lat="44.90515" lon="3.7925">
        <ele>1196.02</ele>
        <time>2024-11-11T14:20:26Z</time>
      </trkpt>
      <trkpt lat="44.90508" lon="3.7925">
        <ele>1196.5</ele>
        <time>2024-11-11T14:20:52Z</time>
      </trkpt>
      <trkpt lat="44.90508" lon="3.79249">
        <ele>1195.54</ele>
        <time>2024-11-11T14:21:13Z</time>
      </trkpt>
      <trkpt lat="44.90513" lon="3.79249">
        <ele>1195.06</ele>
        <time>2024-11-11T14:21:44Z</time>
      </trkpt>
      <trkpt lat="44.90511" lon="3.79256">
        <ele>1195.54</ele>
        <time>2024-11-11T14:22:10Z</time>
      </trkpt>
      <trkpt lat="44.90516" lon="3.79252">
        <ele>1194.58</ele>
        <time>2024-11-11T14:22:38Z</time>
      </trkpt>
      <trkpt lat="44.90518" lon="3.79255">
        <ele>1208.51</ele>
        <time>2024-11-11T14:23:06Z</time>
      </trkpt>
      <trkpt lat="44.90536" lon="3.79251">
        <ele>1223.42</ele>
        <time>2024-11-11T14:23:35Z</time>
      </trkpt>
      <trkpt lat="44.90527" lon="3.79252">
        <ele>1223.9</ele>
        <time>2024-11-11T14:24:07Z</time>
      </trkpt>
      <trkpt lat="44.90517" lon="3.79255">
        <ele>1223.9</ele>
        <time>2024-11-11T14:24:33Z</time>
      </trkpt>
      <trkpt lat="44.90514" lon="3.79256">
        <ele>1223.9</ele>
        <time>2024-11-11T14:24:59Z</time>
      </trkpt>
      <trkpt lat="44.90512" lon="3.79256">
        <ele>1223.9</ele>
        <time>2024-11-11T14:25:20Z</time>
      </trkpt>
      <trkpt lat="44.90512" lon="3.79255">
        <ele>1223.9</ele>
        <time>2024-11-11T14:25:45Z</time>
      </trkpt>
      <trkpt lat="44.90514" lon="3.7926">
        <ele>1223.9</ele>
        <time>2024-11-11T14:26:08Z</time>
      </trkpt>
      <trkpt lat="44.90516" lon="3.79258">
        <ele>1223.9</ele>
        <time>2024-11-11T14:26:34Z</time>
      </trkpt>
      <trkpt lat="44.90525" lon="3.79248">
        <ele>1224.38</ele>
        <time>2024-11-11T14:26:47Z</time>
      </trkpt>
      <trkpt lat="44.90524" lon="3.79241">
        <ele>1224.38</ele>
        <time>2024-11-11T14:27:11Z</time>
      </trkpt>
      <trkpt lat="44.90509" lon="3.79251">
        <ele>1222.45</ele>
        <time>2024-11-11T14:27:31Z</time>
      </trkpt>
      <trkpt lat="44.90517" lon="3.79251">
        <ele>1222.45</ele>
        <time>2024-11-11T14:28:02Z</time>
      </trkpt>
      <trkpt lat="44.9051" lon="3.79246">
        <ele>1225.82</ele>
        <time>2024-11-11T14:28:33Z</time>
      </trkpt>
      <trkpt lat="44.90524" lon="3.79247">
        <ele>1224.86</ele>
        <time>2024-11-11T14:34:05Z</time>
      </trkpt>
      <trkpt lat="44.90511" lon="3.79263">
        <ele>1226.3</ele>
        <time>2024-11-11T14:34:21Z</time>
      </trkpt>
      <trkpt lat="44.90523" lon="3.79264">
        <ele>1229.18</ele>
        <time>2024-11-11T14:34:45Z</time>
      </trkpt>
      <trkpt lat="44.90516" lon="3.79262">
        <ele>1228.7</ele>
        <time>2024-11-11T14:40:26Z</time>
      </trkpt>
      <trkpt lat="44.90512" lon="3.79271">
        <ele>1228.22</ele>
        <time>2024-11-11T14:43:08Z</time>
      </trkpt>
      <trkpt lat="44.90513" lon="3.79262">
        <ele>1234.47</ele>
        <time>2024-11-11T14:43:23Z</time>
      </trkpt>
      <trkpt lat="44.90518" lon="3.79256">
        <ele>1238.8</ele>
        <time>2024-11-11T14:43:47Z</time>
      </trkpt>
      <trkpt lat="44.90521" lon="3.79264">
        <ele>1235.91</ele>
        <time>2024-11-11T14:44:13Z</time>
      </trkpt>
      <trkpt lat="44.90521" lon="3.79256">
        <ele>1237.83</ele>
        <time>2024-11-11T14:44:37Z</time>
      </trkpt>
      <trkpt lat="44.90517" lon="3.79261">
        <ele>1232.07</ele>
        <time>2024-11-11T14:45:03Z</time>
      </trkpt>
      <trkpt lat="44.90514" lon="3.7927">
        <ele>1230.62</ele>
        <time>2024-11-11T14:45:30Z</time>
      </trkpt>
      <trkpt lat="44.90518" lon="3.79263">
        <ele>1231.11</ele>
        <time>2024-11-11T14:45:53Z</time>
      </trkpt>
      <trkpt lat="44.90517" lon="3.79256">
        <ele>1229.18</ele>
        <time>2024-11-11T14:46:15Z</time>
      </trkpt>
      <trkpt lat="44.90522" lon="3.79253">
        <ele>1228.22</ele>
        <time>2024-11-11T14:46:34Z</time>
      </trkpt>
      <trkpt lat="44.90519" lon="3.79258">
        <ele>1232.55</ele>
        <time>2024-11-11T14:47:00Z</time>
      </trkpt>
      <trkpt lat="44.90518" lon="3.79261">
        <ele>1232.07</ele>
        <time>2024-11-11T14:47:25Z</time>
      </trkpt>
      <trkpt lat="44.90516" lon="3.79257">
        <ele>1229.66</ele>
        <time>2024-11-11T14:47:51Z</time>
      </trkpt>
      <trkpt lat="44.90515" lon="3.79263">
        <ele>1227.74</ele>
        <time>2024-11-11T14:48:13Z</time>
      </trkpt>
      <trkpt lat="44.90511" lon="3.79272">
        <ele>1225.34</ele>
        <time>2024-11-11T14:48:30Z</time>
      </trkpt>
      <trkpt lat="44.90508" lon="3.79272">
        <ele>1225.82</ele>
        <time>2024-11-11T14:49:28Z</time>
      </trkpt>
      <trkpt lat="44.90505" lon="3.79279">
        <ele>1220.53</ele>
        <time>2024-11-11T14:49:52Z</time>
      </trkpt>
      <trkpt lat="44.90513" lon="3.79273">
        <ele>1220.05</ele>
        <time>2024-11-11T14:50:09Z</time>
      </trkpt>
      <trkpt lat="44.9051" lon="3.79261">
        <ele>1220.53</ele>
        <time>2024-11-11T14:50:27Z</time>
      </trkpt>
      <trkpt lat="44.90514" lon="3.79267">
        <ele>1223.42</ele>
        <time>2024-11-11T14:50:53Z</time>
      </trkpt>
      <trkpt lat="44.90518" lon="3.79267">
        <ele>1226.78</ele>
        <time>2024-11-11T14:51:18Z</time>
      </trkpt>
      <trkpt lat="44.90513" lon="3.7926">
        <ele>1227.74</ele>
        <time>2024-11-11T14:51:44Z</time>
      </trkpt>
      <trkpt lat="44.90527" lon="3.79262">
        <ele>1223.42</ele>
        <time>2024-11-11T14:52:01Z</time>
      </trkpt>
      <trkpt lat="44.9054" lon="3.79267">
        <ele>1219.09</ele>
        <time>2024-11-11T14:52:20Z</time>
      </trkpt>
      <trkpt lat="44.90542" lon="3.79265">
        <ele>1215.24</ele>
        <time>2024-11-11T14:52:40Z</time>
      </trkpt>
      <trkpt lat="44.90544" lon="3.79263">
        <ele>1215.72</ele>
        <time>2024-11-11T14:52:59Z</time>
      </trkpt>
      <trkpt lat="44.90545" lon="3.79266">
        <ele>1217.65</ele>
        <time>2024-11-11T14:53:19Z</time>
      </trkpt>
      <trkpt lat="44.90551" lon="3.79274">
        <ele>1221.49</ele>
        <time>2024-11-11T14:53:40Z</time>
      </trkpt>
      <trkpt lat="44.90546" lon="3.79275">
        <ele>1222.45</ele>
        <time>2024-11-11T14:53:58Z</time>
      </trkpt>
      <trkpt lat="44.90544" lon="3.79247">
        <ele>1221.97</ele>
        <time>2024-11-11T14:54:16Z</time>
      </trkpt>
      <trkpt lat="44.90539" lon="3.79227">
        <ele>1221.49</ele>
        <time>2024-11-11T14:54:25Z</time>
      </trkpt>
      <trkpt lat="44.90541" lon="3.79202">
        <ele>1218.61</ele>
        <time>2024-11-11T14:54:39Z</time>
      </trkpt>
      <trkpt lat="44.90544" lon="3.79165">
        <ele>1215.72</ele>
        <time>2024-11-11T14:54:56Z</time>
      </trkpt>
      <trkpt lat="44.90544" lon="3.79151">
        <ele>1215.72</ele>
        <time>2024-11-11T14:55:00Z</time>
      </trkpt>
      <trkpt lat="44.90548" lon="3.79115">
        <ele>1215.72</ele>
        <time>2024-11-11T14:55:15Z</time>
      </trkpt>
      <trkpt lat="44.90557" lon="3.79073">
        <ele>1209</ele>
        <time>2024-11-11T14:55:34Z</time>
      </trkpt>
      <trkpt lat="44.90558" lon="3.7904">
        <ele>1203.23</ele>
        <time>2024-11-11T14:55:53Z</time>
      </trkpt>
      <trkpt lat="44.90575" lon="3.79008">
        <ele>1200.82</ele>
        <time>2024-11-11T14:56:11Z</time>
      </trkpt>
      <trkpt lat="44.9058" lon="3.78974">
        <ele>1198.42</ele>
        <time>2024-11-11T14:56:30Z</time>
      </trkpt>
      <trkpt lat="44.90583" lon="3.78927">
        <ele>1198.42</ele>
        <time>2024-11-11T14:56:48Z</time>
      </trkpt>
      <trkpt lat="44.90583" lon="3.78923">
        <ele>1197.94</ele>
        <time>2024-11-11T14:56:51Z</time>
      </trkpt>
      <trkpt lat="44.90588" lon="3.78879">
        <ele>1194.58</ele>
        <time>2024-11-11T14:57:12Z</time>
      </trkpt>
      <trkpt lat="44.90592" lon="3.78836">
        <ele>1192.17</ele>
        <time>2024-11-11T14:57:31Z</time>
      </trkpt>
      <trkpt lat="44.90601" lon="3.78789">
        <ele>1194.09</ele>
        <time>2024-11-11T14:57:52Z</time>
      </trkpt>
      <trkpt lat="44.90613" lon="3.78748">
        <ele>1198.42</ele>
        <time>2024-11-11T14:58:11Z</time>
      </trkpt>
      <trkpt lat="44.90625" lon="3.78714">
        <ele>1198.9</ele>
        <time>2024-11-11T14:58:32Z</time>
      </trkpt>
      <trkpt lat="44.90643" lon="3.7867">
        <ele>1196.98</ele>
        <time>2024-11-11T14:58:58Z</time>
      </trkpt>
      <trkpt lat="44.90657" lon="3.78643">
        <ele>1195.54</ele>
        <time>2024-11-11T14:59:15Z</time>
      </trkpt>
      <trkpt lat="44.90682" lon="3.78607">
        <ele>1194.09</ele>
        <time>2024-11-11T14:59:33Z</time>
      </trkpt>
      <trkpt lat="44.90708" lon="3.78568">
        <ele>1198.42</ele>
        <time>2024-11-11T14:59:51Z</time>
      </trkpt>
      <trkpt lat="44.90731" lon="3.78556">
        <ele>1200.34</ele>
        <time>2024-11-11T15:00:08Z</time>
      </trkpt>
      <trkpt lat="44.90752" lon="3.78548">
        <ele>1202.75</ele>
        <time>2024-11-11T15:00:22Z</time>
      </trkpt>
      <trkpt lat="44.90769" lon="3.78538">
        <ele>1204.67</ele>
        <time>2024-11-11T15:00:38Z</time>
      </trkpt>
      <trkpt lat="44.90769" lon="3.78533">
        <ele>1205.15</ele>
        <time>2024-11-11T15:00:40Z</time>
      </trkpt>
      <trkpt lat="44.90781" lon="3.78499">
        <ele>1209</ele>
        <time>2024-11-11T15:01:00Z</time>
      </trkpt>
      <trkpt lat="44.90793" lon="3.78481">
        <ele>1209.96</ele>
        <time>2024-11-11T15:01:12Z</time>
      </trkpt>
      <trkpt lat="44.90813" lon="3.78471">
        <ele>1212.84</ele>
        <time>2024-11-11T15:01:30Z</time>
      </trkpt>
      <trkpt lat="44.90818" lon="3.78435">
        <ele>1213.8</ele>
        <time>2024-11-11T15:01:49Z</time>
      </trkpt>
      <trkpt lat="44.90813" lon="3.78425">
        <ele>1213.8</ele>
        <time>2024-11-11T15:02:14Z</time>
      </trkpt>
      <trkpt lat="44.90813" lon="3.7843">
        <ele>1214.76</ele>
        <time>2024-11-11T15:02:35Z</time>
      </trkpt>
      <trkpt lat="44.90815" lon="3.78431">
        <ele>1215.72</ele>
        <time>2024-11-11T15:03:04Z</time>
      </trkpt>
      <trkpt lat="44.90811" lon="3.7844">
        <ele>1215.72</ele>
        <time>2024-11-11T15:03:41Z</time>
      </trkpt>
      <trkpt lat="44.90817" lon="3.78435">
        <ele>1216.21</ele>
        <time>2024-11-11T15:03:58Z</time>
      </trkpt>
      <trkpt lat="44.90822" lon="3.78439">
        <ele>1216.21</ele>
        <time>2024-11-11T15:04:17Z</time>
      </trkpt>
      <trkpt lat="44.90821" lon="3.78441">
        <ele>1224.38</ele>
        <time>2024-11-11T15:04:38Z</time>
      </trkpt>
      <trkpt lat="44.90827" lon="3.78457">
        <ele>1227.26</ele>
        <time>2024-11-11T15:05:01Z</time>
      </trkpt>
      <trkpt lat="44.90818" lon="3.78457">
        <ele>1226.78</ele>
        <time>2024-11-11T15:05:21Z</time>
      </trkpt>
      <trkpt lat="44.90812" lon="3.78478">
        <ele>1227.26</ele>
        <time>2024-11-11T15:05:44Z</time>
      </trkpt>
      <trkpt lat="44.90806" lon="3.78498">
        <ele>1225.82</ele>
        <time>2024-11-11T15:06:01Z</time>
      </trkpt>
      <trkpt lat="44.90827" lon="3.78487">
        <ele>1222.45</ele>
        <time>2024-11-11T15:06:20Z</time>
      </trkpt>
      <trkpt lat="44.90829" lon="3.78486">
        <ele>1222.45</ele>
        <time>2024-11-11T15:06:22Z</time>
      </trkpt>
      <trkpt lat="44.9085" lon="3.78505">
        <ele>1221.01</ele>
        <time>2024-11-11T15:06:45Z</time>
      </trkpt>
      <trkpt lat="44.90886" lon="3.78504">
        <ele>1221.97</ele>
        <time>2024-11-11T15:07:02Z</time>
      </trkpt>
      <trkpt lat="44.90891" lon="3.78499">
        <ele>1222.93</ele>
        <time>2024-11-11T15:07:19Z</time>
      </trkpt>
      <trkpt lat="44.90889" lon="3.78492">
        <ele>1221.01</ele>
        <time>2024-11-11T15:07:46Z</time>
      </trkpt>
      <trkpt lat="44.90892" lon="3.78491">
        <ele>1216.21</ele>
        <time>2024-11-11T15:08:11Z</time>
      </trkpt>
      <trkpt lat="44.90885" lon="3.78495">
        <ele>1218.13</ele>
        <time>2024-11-11T15:08:32Z</time>
      </trkpt>
      <trkpt lat="44.90873" lon="3.78494">
        <ele>1217.65</ele>
        <time>2024-11-11T15:08:42Z</time>
      </trkpt>
      <trkpt lat="44.90843" lon="3.78482">
        <ele>1214.76</ele>
        <time>2024-11-11T15:08:59Z</time>
      </trkpt>
      <trkpt lat="44.90813" lon="3.78479">
        <ele>1217.17</ele>
        <time>2024-11-11T15:09:16Z</time>
      </trkpt>
      <trkpt lat="44.90801" lon="3.7848">
        <ele>1218.61</ele>
        <time>2024-11-11T15:09:30Z</time>
      </trkpt>
      <trkpt lat="44.90798" lon="3.7848">
        <ele>1218.13</ele>
        <time>2024-11-11T15:09:50Z</time>
      </trkpt>
      <trkpt lat="44.90794" lon="3.78484">
        <ele>1218.13</ele>
        <time>2024-11-11T15:09:55Z</time>
      </trkpt>
      <trkpt lat="44.90784" lon="3.78495">
        <ele>1221.49</ele>
        <time>2024-11-11T15:10:11Z</time>
      </trkpt>
      <trkpt lat="44.90782" lon="3.78502">
        <ele>1221.97</ele>
        <time>2024-11-11T15:10:32Z</time>
      </trkpt>
      <trkpt lat="44.90771" lon="3.78526">
        <ele>1211.4</ele>
        <time>2024-11-11T15:10:49Z</time>
      </trkpt>
      <trkpt lat="44.90769" lon="3.78533">
        <ele>1208.03</ele>
        <time>2024-11-11T15:10:53Z</time>
      </trkpt>
      <trkpt lat="44.90782" lon="3.78542">
        <ele>1203.71</ele>
        <time>2024-11-11T15:11:04Z</time>
      </trkpt>
      <trkpt lat="44.90804" lon="3.78537">
        <ele>1202.27</ele>
        <time>2024-11-11T15:11:19Z</time>
      </trkpt>
      <trkpt lat="44.90825" lon="3.78535">
        <ele>1201.3</ele>
        <time>2024-11-11T15:11:33Z</time>
      </trkpt>
      <trkpt lat="44.90846" lon="3.78539">
        <ele>1201.3</ele>
        <time>2024-11-11T15:11:49Z</time>
      </trkpt>
      <trkpt lat="44.90864" lon="3.78545">
        <ele>1201.79</ele>
        <time>2024-11-11T15:12:03Z</time>
      </trkpt>
      <trkpt lat="44.90892" lon="3.78547">
        <ele>1202.27</ele>
        <time>2024-11-11T15:12:21Z</time>
      </trkpt>
      <trkpt lat="44.90913" lon="3.78556">
        <ele>1200.34</ele>
        <time>2024-11-11T15:12:35Z</time>
      </trkpt>
      <trkpt lat="44.90937" lon="3.78564">
        <ele>1198.9</ele>
        <time>2024-11-11T15:12:52Z</time>
      </trkpt>
      <trkpt lat="44.90939" lon="3.78564">
        <ele>1198.9</ele>
        <time>2024-11-11T15:12:53Z</time>
      </trkpt>
      <trkpt lat="44.9096" lon="3.78577">
        <ele>1196.98</ele>
        <time>2024-11-11T15:13:09Z</time>
      </trkpt>
      <trkpt lat="44.90978" lon="3.78587">
        <ele>1197.94</ele>
        <time>2024-11-11T15:13:22Z</time>
      </trkpt>
      <trkpt lat="44.90998" lon="3.78591">
        <ele>1195.54</ele>
        <time>2024-11-11T15:13:35Z</time>
      </trkpt>
      <trkpt lat="44.91015" lon="3.78602">
        <ele>1196.02</ele>
        <time>2024-11-11T15:13:47Z</time>
      </trkpt>
      <trkpt lat="44.91018" lon="3.78602">
        <ele>1195.54</ele>
        <time>2024-11-11T15:13:50Z</time>
      </trkpt>
      <trkpt lat="44.91032" lon="3.78613">
        <ele>1196.98</ele>
        <time>2024-11-11T15:14:02Z</time>
      </trkpt>
      <trkpt lat="44.91041" lon="3.78618">
        <ele>1196.98</ele>
        <time>2024-11-11T15:14:07Z</time>
      </trkpt>
      <trkpt lat="44.91043" lon="3.78619">
        <ele>1196.98</ele>
        <time>2024-11-11T15:14:08Z</time>
      </trkpt>
      <trkpt lat="44.91044" lon="3.7862">
        <ele>1196.98</ele>
        <time>2024-11-11T15:14:09Z</time>
      </trkpt>
      <trkpt lat="44.91046" lon="3.78621">
        <ele>1196.98</ele>
        <time>2024-11-11T15:14:10Z</time>
      </trkpt>
      <trkpt lat="44.91047" lon="3.78622">
        <ele>1197.46</ele>
        <time>2024-11-11T15:14:11Z</time>
      </trkpt>
      <trkpt lat="44.91048" lon="3.78623">
        <ele>1197.46</ele>
        <time>2024-11-11T15:14:12Z</time>
      </trkpt>
      <trkpt lat="44.91057" lon="3.78626">
        <ele>1198.42</ele>
        <time>2024-11-11T15:14:19Z</time>
      </trkpt>
      <trkpt lat="44.91058" lon="3.78627">
        <ele>1198.42</ele>
        <time>2024-11-11T15:14:20Z</time>
      </trkpt>
      <trkpt lat="44.91059" lon="3.78629">
        <ele>1198.9</ele>
        <time>2024-11-11T15:14:21Z</time>
      </trkpt>
      <trkpt lat="44.9106" lon="3.7863">
        <ele>1198.9</ele>
        <time>2024-11-11T15:14:22Z</time>
      </trkpt>
      <trkpt lat="44.91062" lon="3.78631">
        <ele>1198.9</ele>
        <time>2024-11-11T15:14:23Z</time>
      </trkpt>
      <trkpt lat="44.91063" lon="3.78632">
        <ele>1198.9</ele>
        <time>2024-11-11T15:14:24Z</time>
      </trkpt>
      <trkpt lat="44.91065" lon="3.78633">
        <ele>1199.38</ele>
        <time>2024-11-11T15:14:25Z</time>
      </trkpt>
      <trkpt lat="44.91066" lon="3.78634">
        <ele>1199.38</ele>
        <time>2024-11-11T15:14:26Z</time>
      </trkpt>
      <trkpt lat="44.91077" lon="3.78639">
        <ele>1199.86</ele>
        <time>2024-11-11T15:14:35Z</time>
      </trkpt>
      <trkpt lat="44.91078" lon="3.7864">
        <ele>1199.38</ele>
        <time>2024-11-11T15:14:36Z</time>
      </trkpt>
      <trkpt lat="44.91085" lon="3.78645">
        <ele>1198.9</ele>
        <time>2024-11-11T15:14:41Z</time>
      </trkpt>
      <trkpt lat="44.91086" lon="3.78646">
        <ele>1198.9</ele>
        <time>2024-11-11T15:14:42Z</time>
      </trkpt>
      <trkpt lat="44.91087" lon="3.78648">
        <ele>1198.9</ele>
        <time>2024-11-11T15:14:43Z</time>
      </trkpt>
      <trkpt lat="44.91088" lon="3.78649">
        <ele>1198.42</ele>
        <time>2024-11-11T15:14:44Z</time>
      </trkpt>
      <trkpt lat="44.9109" lon="3.7865">
        <ele>1198.42</ele>
        <time>2024-11-11T15:14:45Z</time>
      </trkpt>
      <trkpt lat="44.91091" lon="3.78651">
        <ele>1198.42</ele>
        <time>2024-11-11T15:14:46Z</time>
      </trkpt>
      <trkpt lat="44.911" lon="3.78654">
        <ele>1196.98</ele>
        <time>2024-11-11T15:14:52Z</time>
      </trkpt>
      <trkpt lat="44.91102" lon="3.78654">
        <ele>1196.98</ele>
        <time>2024-11-11T15:14:53Z</time>
      </trkpt>
      <trkpt lat="44.91103" lon="3.78655">
        <ele>1196.98</ele>
        <time>2024-11-11T15:14:54Z</time>
      </trkpt>
      <trkpt lat="44.91116" lon="3.78668">
        <ele>1196.02</ele>
        <time>2024-11-11T15:15:02Z</time>
      </trkpt>
      <trkpt lat="44.91118" lon="3.78667">
        <ele>1196.02</ele>
        <time>2024-11-11T15:15:03Z</time>
      </trkpt>
      <trkpt lat="44.91123" lon="3.78671">
        <ele>1196.5</ele>
        <time>2024-11-11T15:15:07Z</time>
      </trkpt>
      <trkpt lat="44.91124" lon="3.78672">
        <ele>1196.5</ele>
        <time>2024-11-11T15:15:08Z</time>
      </trkpt>
      <trkpt lat="44.91138" lon="3.78691">
        <ele>1196.98</ele>
        <time>2024-11-11T15:15:21Z</time>
      </trkpt>
      <trkpt lat="44.9115" lon="3.78714">
        <ele>1197.94</ele>
        <time>2024-11-11T15:15:35Z</time>
      </trkpt>
      <trkpt lat="44.91163" lon="3.78734">
        <ele>1199.86</ele>
        <time>2024-11-11T15:15:49Z</time>
      </trkpt>
      <trkpt lat="44.91169" lon="3.78748">
        <ele>1200.82</ele>
        <time>2024-11-11T15:15:56Z</time>
      </trkpt>
      <trkpt lat="44.9117" lon="3.7875">
        <ele>1200.82</ele>
        <time>2024-11-11T15:15:57Z</time>
      </trkpt>
      <trkpt lat="44.91171" lon="3.78752">
        <ele>1201.3</ele>
        <time>2024-11-11T15:15:58Z</time>
      </trkpt>
      <trkpt lat="44.9118" lon="3.78776">
        <ele>1202.27</ele>
        <time>2024-11-11T15:16:11Z</time>
      </trkpt>
      <trkpt lat="44.91184" lon="3.78794">
        <ele>1204.67</ele>
        <time>2024-11-11T15:16:20Z</time>
      </trkpt>
      <trkpt lat="44.91184" lon="3.78796">
        <ele>1204.67</ele>
        <time>2024-11-11T15:16:21Z</time>
      </trkpt>
      <trkpt lat="44.91185" lon="3.78799">
        <ele>1205.15</ele>
        <time>2024-11-11T15:16:22Z</time>
      </trkpt>
      <trkpt lat="44.91185" lon="3.78801">
        <ele>1205.15</ele>
        <time>2024-11-11T15:16:23Z</time>
      </trkpt>
      <trkpt lat="44.91185" lon="3.78803">
        <ele>1205.63</ele>
        <time>2024-11-11T15:16:24Z</time>
      </trkpt>
      <trkpt lat="44.91185" lon="3.78805">
        <ele>1206.11</ele>
        <time>2024-11-11T15:16:25Z</time>
      </trkpt>
      <trkpt lat="44.91186" lon="3.78809">
        <ele>1206.59</ele>
        <time>2024-11-11T15:16:27Z</time>
      </trkpt>
      <trkpt lat="44.91186" lon="3.78811">
        <ele>1207.07</ele>
        <time>2024-11-11T15:16:28Z</time>
      </trkpt>
      <trkpt lat="44.91187" lon="3.78814">
        <ele>1207.07</ele>
        <time>2024-11-11T15:16:29Z</time>
      </trkpt>
      <trkpt lat="44.91188" lon="3.78816">
        <ele>1207.07</ele>
        <time>2024-11-11T15:16:30Z</time>
      </trkpt>
      <trkpt lat="44.91188" lon="3.78818">
        <ele>1207.07</ele>
        <time>2024-11-11T15:16:31Z</time>
      </trkpt>
      <trkpt lat="44.91188" lon="3.78819">
        <ele>1207.07</ele>
        <time>2024-11-11T15:16:32Z</time>
      </trkpt>
      <trkpt lat="44.91188" lon="3.78821">
        <ele>1207.07</ele>
        <time>2024-11-11T15:16:33Z</time>
      </trkpt>
      <trkpt lat="44.91189" lon="3.78823">
        <ele>1207.07</ele>
        <time>2024-11-11T15:16:34Z</time>
      </trkpt>
      <trkpt lat="44.91189" lon="3.78824">
        <ele>1207.07</ele>
        <time>2024-11-11T15:16:35Z</time>
      </trkpt>
      <trkpt lat="44.9119" lon="3.78835">
        <ele>1208.03</ele>
        <time>2024-11-11T15:16:40Z</time>
      </trkpt>
      <trkpt lat="44.91191" lon="3.78837">
        <ele>1208.03</ele>
        <time>2024-11-11T15:16:41Z</time>
      </trkpt>
      <trkpt lat="44.91192" lon="3.78839">
        <ele>1208.03</ele>
        <time>2024-11-11T15:16:42Z</time>
      </trkpt>
      <trkpt lat="44.91192" lon="3.78841">
        <ele>1208.03</ele>
        <time>2024-11-11T15:16:43Z</time>
      </trkpt>
      <trkpt lat="44.91192" lon="3.78843">
        <ele>1208.51</ele>
        <time>2024-11-11T15:16:44Z</time>
      </trkpt>
      <trkpt lat="44.91193" lon="3.78845">
        <ele>1208.51</ele>
        <time>2024-11-11T15:16:45Z</time>
      </trkpt>
      <trkpt lat="44.91193" lon="3.78847">
        <ele>1208.51</ele>
        <time>2024-11-11T15:16:46Z</time>
      </trkpt>
      <trkpt lat="44.91194" lon="3.78849">
        <ele>1208.51</ele>
        <time>2024-11-11T15:16:47Z</time>
      </trkpt>
      <trkpt lat="44.91201" lon="3.78875">
        <ele>1208.03</ele>
        <time>2024-11-11T15:17:00Z</time>
      </trkpt>
      <trkpt lat="44.91206" lon="3.78894">
        <ele>1208.03</ele>
        <time>2024-11-11T15:17:14Z</time>
      </trkpt>
      <trkpt lat="44.91213" lon="3.7893">
        <ele>1206.59</ele>
        <time>2024-11-11T15:17:30Z</time>
      </trkpt>
      <trkpt lat="44.91219" lon="3.7896">
        <ele>1206.59</ele>
        <time>2024-11-11T15:17:46Z</time>
      </trkpt>
      <trkpt lat="44.91221" lon="3.79002">
        <ele>1205.63</ele>
        <time>2024-11-11T15:18:04Z</time>
      </trkpt>
      <trkpt lat="44.9122" lon="3.79005">
        <ele>1206.11</ele>
        <time>2024-11-11T15:18:05Z</time>
      </trkpt>
      <trkpt lat="44.9122" lon="3.79007">
        <ele>1207.07</ele>
        <time>2024-11-11T15:18:06Z</time>
      </trkpt>
      <trkpt lat="44.91225" lon="3.7902">
        <ele>1207.07</ele>
        <time>2024-11-11T15:18:19Z</time>
      </trkpt>
      <trkpt lat="44.91233" lon="3.79016">
        <ele>1206.11</ele>
        <time>2024-11-11T15:18:26Z</time>
      </trkpt>
      <trkpt lat="44.91234" lon="3.79017">
        <ele>1206.59</ele>
        <time>2024-11-11T15:18:27Z</time>
      </trkpt>
      <trkpt lat="44.91236" lon="3.79019">
        <ele>1206.59</ele>
        <time>2024-11-11T15:18:28Z</time>
      </trkpt>
      <trkpt lat="44.91239" lon="3.7902">
        <ele>1207.07</ele>
        <time>2024-11-11T15:18:29Z</time>
      </trkpt>
      <trkpt lat="44.91249" lon="3.79022">
        <ele>1211.88</ele>
        <time>2024-11-11T15:18:41Z</time>
      </trkpt>
      <trkpt lat="44.91264" lon="3.79022">
        <ele>1217.17</ele>
        <time>2024-11-11T15:18:55Z</time>
      </trkpt>
      <trkpt lat="44.91283" lon="3.79039">
        <ele>1220.53</ele>
        <time>2024-11-11T15:19:15Z</time>
      </trkpt>
      <trkpt lat="44.91303" lon="3.79042">
        <ele>1225.82</ele>
        <time>2024-11-11T15:19:33Z</time>
      </trkpt>
      <trkpt lat="44.91314" lon="3.79028">
        <ele>1228.7</ele>
        <time>2024-11-11T15:19:48Z</time>
      </trkpt>
      <trkpt lat="44.9133" lon="3.79001">
        <ele>1231.59</ele>
        <time>2024-11-11T15:20:07Z</time>
      </trkpt>
      <trkpt lat="44.91353" lon="3.7899">
        <ele>1230.14</ele>
        <time>2024-11-11T15:20:25Z</time>
      </trkpt>
      <trkpt lat="44.91366" lon="3.78964">
        <ele>1229.18</ele>
        <time>2024-11-11T15:20:43Z</time>
      </trkpt>
      <trkpt lat="44.91367" lon="3.78939">
        <ele>1230.62</ele>
        <time>2024-11-11T15:20:55Z</time>
      </trkpt>
      <trkpt lat="44.91367" lon="3.78936">
        <ele>1230.62</ele>
        <time>2024-11-11T15:20:56Z</time>
      </trkpt>
      <trkpt lat="44.91371" lon="3.78902">
        <ele>1230.62</ele>
        <time>2024-11-11T15:21:12Z</time>
      </trkpt>
      <trkpt lat="44.91371" lon="3.789">
        <ele>1230.62</ele>
        <time>2024-11-11T15:21:13Z</time>
      </trkpt>
      <trkpt lat="44.91375" lon="3.78879">
        <ele>1229.18</ele>
        <time>2024-11-11T15:21:30Z</time>
      </trkpt>
      <trkpt lat="44.91376" lon="3.78886">
        <ele>1227.26</ele>
        <time>2024-11-11T15:21:40Z</time>
      </trkpt>
      <trkpt lat="44.91375" lon="3.78889">
        <ele>1227.26</ele>
        <time>2024-11-11T15:21:41Z</time>
      </trkpt>
      <trkpt lat="44.91375" lon="3.78891">
        <ele>1226.78</ele>
        <time>2024-11-11T15:21:42Z</time>
      </trkpt>
      <trkpt lat="44.91375" lon="3.78922">
        <ele>1224.38</ele>
        <time>2024-11-11T15:21:59Z</time>
      </trkpt>
      <trkpt lat="44.91388" lon="3.78953">
        <ele>1226.3</ele>
        <time>2024-11-11T15:22:18Z</time>
      </trkpt>
      <trkpt lat="44.91389" lon="3.78954">
        <ele>1226.3</ele>
        <time>2024-11-11T15:22:19Z</time>
      </trkpt>
      <trkpt lat="44.9139" lon="3.78954">
        <ele>1226.78</ele>
        <time>2024-11-11T15:22:20Z</time>
      </trkpt>
      <trkpt lat="44.91392" lon="3.78953">
        <ele>1226.78</ele>
        <time>2024-11-11T15:22:22Z</time>
      </trkpt>
      <trkpt lat="44.91393" lon="3.7895">
        <ele>1226.3</ele>
        <time>2024-11-11T15:22:23Z</time>
      </trkpt>
      <trkpt lat="44.9141" lon="3.78926">
        <ele>1226.3</ele>
        <time>2024-11-11T15:22:37Z</time>
      </trkpt>
      <trkpt lat="44.91415" lon="3.78897">
        <ele>1228.7</ele>
        <time>2024-11-11T15:22:50Z</time>
      </trkpt>
      <trkpt lat="44.9143" lon="3.78857">
        <ele>1228.7</ele>
        <time>2024-11-11T15:23:08Z</time>
      </trkpt>
      <trkpt lat="44.91437" lon="3.78813">
        <ele>1227.26</ele>
        <time>2024-11-11T15:23:24Z</time>
      </trkpt>
      <trkpt lat="44.91448" lon="3.78778">
        <ele>1222.93</ele>
        <time>2024-11-11T15:23:48Z</time>
      </trkpt>
      <trkpt lat="44.91457" lon="3.78735">
        <ele>1220.53</ele>
        <time>2024-11-11T15:24:09Z</time>
      </trkpt>
      <trkpt lat="44.91466" lon="3.78706">
        <ele>1218.61</ele>
        <time>2024-11-11T15:24:28Z</time>
      </trkpt>
      <trkpt lat="44.91483" lon="3.78666">
        <ele>1228.22</ele>
        <time>2024-11-11T15:24:45Z</time>
      </trkpt>
      <trkpt lat="44.91503" lon="3.7862">
        <ele>1222.93</ele>
        <time>2024-11-11T15:25:08Z</time>
      </trkpt>
      <trkpt lat="44.91513" lon="3.78595">
        <ele>1220.05</ele>
        <time>2024-11-11T15:25:26Z</time>
      </trkpt>
      <trkpt lat="44.91531" lon="3.78549">
        <ele>1220.05</ele>
        <time>2024-11-11T15:25:47Z</time>
      </trkpt>
      <trkpt lat="44.91541" lon="3.78518">
        <ele>1220.53</ele>
        <time>2024-11-11T15:26:05Z</time>
      </trkpt>
      <trkpt lat="44.91551" lon="3.7848">
        <ele>1221.97</ele>
        <time>2024-11-11T15:26:24Z</time>
      </trkpt>
      <trkpt lat="44.91558" lon="3.78439">
        <ele>1219.09</ele>
        <time>2024-11-11T15:26:44Z</time>
      </trkpt>
      <trkpt lat="44.91561" lon="3.78411">
        <ele>1219.09</ele>
        <time>2024-11-11T15:27:06Z</time>
      </trkpt>
      <trkpt lat="44.91566" lon="3.7839">
        <ele>1219.09</ele>
        <time>2024-11-11T15:27:22Z</time>
      </trkpt>
      <trkpt lat="44.91575" lon="3.78351">
        <ele>1222.93</ele>
        <time>2024-11-11T15:27:41Z</time>
      </trkpt>
      <trkpt lat="44.91588" lon="3.78302">
        <ele>1220.05</ele>
        <time>2024-11-11T15:28:02Z</time>
      </trkpt>
      <trkpt lat="44.91598" lon="3.78273">
        <ele>1214.28</ele>
        <time>2024-11-11T15:28:21Z</time>
      </trkpt>
      <trkpt lat="44.91603" lon="3.78231">
        <ele>1223.9</ele>
        <time>2024-11-11T15:28:39Z</time>
      </trkpt>
      <trkpt lat="44.91614" lon="3.78199">
        <ele>1230.62</ele>
        <time>2024-11-11T15:28:57Z</time>
      </trkpt>
      <trkpt lat="44.91629" lon="3.78159">
        <ele>1232.55</ele>
        <time>2024-11-11T15:29:15Z</time>
      </trkpt>
      <trkpt lat="44.91636" lon="3.7814">
        <ele>1236.87</ele>
        <time>2024-11-11T15:29:27Z</time>
      </trkpt>
      <trkpt lat="44.91641" lon="3.78119">
        <ele>1235.43</ele>
        <time>2024-11-11T15:29:40Z</time>
      </trkpt>
      <trkpt lat="44.9165" lon="3.78083">
        <ele>1230.62</ele>
        <time>2024-11-11T15:29:56Z</time>
      </trkpt>
      <trkpt lat="44.91656" lon="3.78048">
        <ele>1228.22</ele>
        <time>2024-11-11T15:30:11Z</time>
      </trkpt>
      <trkpt lat="44.91659" lon="3.78003">
        <ele>1223.9</ele>
        <time>2024-11-11T15:30:33Z</time>
      </trkpt>
      <trkpt lat="44.91661" lon="3.77996">
        <ele>1222.45</ele>
        <time>2024-11-11T15:30:37Z</time>
      </trkpt>
      <trkpt lat="44.91658" lon="3.77939">
        <ele>1228.22</ele>
        <time>2024-11-11T15:30:58Z</time>
      </trkpt>
      <trkpt lat="44.9166" lon="3.77903">
        <ele>1229.66</ele>
        <time>2024-11-11T15:31:19Z</time>
      </trkpt>
      <trkpt lat="44.91662" lon="3.77912">
        <ele>1235.43</ele>
        <time>2024-11-11T15:31:43Z</time>
      </trkpt>
      <trkpt lat="44.91663" lon="3.77915">
        <ele>1235.43</ele>
        <time>2024-11-11T15:32:05Z</time>
      </trkpt>
      <trkpt lat="44.91663" lon="3.7791">
        <ele>1235.43</ele>
        <time>2024-11-11T15:32:26Z</time>
      </trkpt>
      <trkpt lat="44.9166" lon="3.77905">
        <ele>1235.91</ele>
        <time>2024-11-11T15:32:46Z</time>
      </trkpt>
      <trkpt lat="44.91661" lon="3.77912">
        <ele>1235.91</ele>
        <time>2024-11-11T15:33:03Z</time>
      </trkpt>
      <trkpt lat="44.91658" lon="3.77909">
        <ele>1236.39</ele>
        <time>2024-11-11T15:33:27Z</time>
      </trkpt>
      <trkpt lat="44.91664" lon="3.77895">
        <ele>1236.87</ele>
        <time>2024-11-11T15:33:51Z</time>
      </trkpt>
      <trkpt lat="44.91662" lon="3.77862">
        <ele>1233.03</ele>
        <time>2024-11-11T15:34:13Z</time>
      </trkpt>
      <trkpt lat="44.91661" lon="3.77826">
        <ele>1233.03</ele>
        <time>2024-11-11T15:34:35Z</time>
      </trkpt>
      <trkpt lat="44.91661" lon="3.77805">
        <ele>1232.07</ele>
        <time>2024-11-11T15:34:54Z</time>
      </trkpt>
      <trkpt lat="44.91665" lon="3.77808">
        <ele>1228.7</ele>
        <time>2024-11-11T15:35:12Z</time>
      </trkpt>
      <trkpt lat="44.9166" lon="3.77792">
        <ele>1226.78</ele>
        <time>2024-11-11T15:35:32Z</time>
      </trkpt>
      <trkpt lat="44.91659" lon="3.77767">
        <ele>1227.74</ele>
        <time>2024-11-11T15:35:52Z</time>
      </trkpt>
      <trkpt lat="44.91666" lon="3.77729">
        <ele>1230.62</ele>
        <time>2024-11-11T15:36:13Z</time>
      </trkpt>
      <trkpt lat="44.91667" lon="3.77717">
        <ele>1232.07</ele>
        <time>2024-11-11T15:36:18Z</time>
      </trkpt>
      <trkpt lat="44.91665" lon="3.77679">
        <ele>1236.39</ele>
        <time>2024-11-11T15:36:38Z</time>
      </trkpt>
      <trkpt lat="44.91684" lon="3.77648">
        <ele>1234.95</ele>
        <time>2024-11-11T15:37:00Z</time>
      </trkpt>
      <trkpt lat="44.91691" lon="3.77601">
        <ele>1232.55</ele>
        <time>2024-11-11T15:37:25Z</time>
      </trkpt>
      <trkpt lat="44.91702" lon="3.77557">
        <ele>1233.03</ele>
        <time>2024-11-11T15:37:49Z</time>
      </trkpt>
      <trkpt lat="44.91715" lon="3.77522">
        <ele>1233.03</ele>
        <time>2024-11-11T15:38:11Z</time>
      </trkpt>
      <trkpt lat="44.91717" lon="3.77516">
        <ele>1233.03</ele>
        <time>2024-11-11T15:38:13Z</time>
      </trkpt>
      <trkpt lat="44.91739" lon="3.77455">
        <ele>1230.62</ele>
        <time>2024-11-11T15:38:29Z</time>
      </trkpt>
      <trkpt lat="44.91771" lon="3.7739">
        <ele>1227.74</ele>
        <time>2024-11-11T15:38:45Z</time>
      </trkpt>
      <trkpt lat="44.91785" lon="3.7735">
        <ele>1225.34</ele>
        <time>2024-11-11T15:39:00Z</time>
      </trkpt>
      <trkpt lat="44.91786" lon="3.77347">
        <ele>1225.34</ele>
        <time>2024-11-11T15:39:01Z</time>
      </trkpt>
      <trkpt lat="44.91787" lon="3.77344">
        <ele>1225.82</ele>
        <time>2024-11-11T15:39:02Z</time>
      </trkpt>
      <trkpt lat="44.9179" lon="3.77301">
        <ele>1232.07</ele>
        <time>2024-11-11T15:39:19Z</time>
      </trkpt>
      <trkpt lat="44.91784" lon="3.77253">
        <ele>1233.03</ele>
        <time>2024-11-11T15:39:39Z</time>
      </trkpt>
      <trkpt lat="44.91774" lon="3.77227">
        <ele>1233.51</ele>
        <time>2024-11-11T15:39:50Z</time>
      </trkpt>
      <trkpt lat="44.91773" lon="3.77225">
        <ele>1233.51</ele>
        <time>2024-11-11T15:39:51Z</time>
      </trkpt>
      <trkpt lat="44.91765" lon="3.77195">
        <ele>1235.43</ele>
        <time>2024-11-11T15:40:07Z</time>
      </trkpt>
      <trkpt lat="44.9177" lon="3.77163">
        <ele>1234.47</ele>
        <time>2024-11-11T15:40:23Z</time>
      </trkpt>
      <trkpt lat="44.91776" lon="3.77144">
        <ele>1235.91</ele>
        <time>2024-11-11T15:40:28Z</time>
      </trkpt>
      <trkpt lat="44.91778" lon="3.77141">
        <ele>1235.91</ele>
        <time>2024-11-11T15:40:29Z</time>
      </trkpt>
      <trkpt lat="44.91785" lon="3.77115">
        <ele>1240.24</ele>
        <time>2024-11-11T15:40:41Z</time>
      </trkpt>
      <trkpt lat="44.91787" lon="3.77088">
        <ele>1241.68</ele>
        <time>2024-11-11T15:40:56Z</time>
      </trkpt>
      <trkpt lat="44.91786" lon="3.77062">
        <ele>1242.16</ele>
        <time>2024-11-11T15:41:11Z</time>
      </trkpt>
      <trkpt lat="44.91786" lon="3.77031">
        <ele>1239.76</ele>
        <time>2024-11-11T15:41:29Z</time>
      </trkpt>
      <trkpt lat="44.91794" lon="3.76991">
        <ele>1236.39</ele>
        <time>2024-11-11T15:41:46Z</time>
      </trkpt>
      <trkpt lat="44.91795" lon="3.76989">
        <ele>1235.91</ele>
        <time>2024-11-11T15:41:47Z</time>
      </trkpt>
      <trkpt lat="44.91803" lon="3.76956">
        <ele>1243.12</ele>
        <time>2024-11-11T15:42:02Z</time>
      </trkpt>
      <trkpt lat="44.91805" lon="3.76944">
        <ele>1249.85</ele>
        <time>2024-11-11T15:42:18Z</time>
      </trkpt>
      <trkpt lat="44.91803" lon="3.76915">
        <ele>1254.66</ele>
        <time>2024-11-11T15:42:34Z</time>
      </trkpt>
      <trkpt lat="44.91793" lon="3.76879">
        <ele>1259.46</ele>
        <time>2024-11-11T15:42:50Z</time>
      </trkpt>
      <trkpt lat="44.9178" lon="3.76845">
        <ele>1260.43</ele>
        <time>2024-11-11T15:43:06Z</time>
      </trkpt>
      <trkpt lat="44.9177" lon="3.76812">
        <ele>1259.94</ele>
        <time>2024-11-11T15:43:21Z</time>
      </trkpt>
      <trkpt lat="44.91767" lon="3.76782">
        <ele>1261.39</ele>
        <time>2024-11-11T15:43:35Z</time>
      </trkpt>
      <trkpt lat="44.91762" lon="3.76744">
        <ele>1261.39</ele>
        <time>2024-11-11T15:43:53Z</time>
      </trkpt>
      <trkpt lat="44.91761" lon="3.76701">
        <ele>1260.43</ele>
        <time>2024-11-11T15:44:10Z</time>
      </trkpt>
      <trkpt lat="44.91759" lon="3.76651">
        <ele>1256.58</ele>
        <time>2024-11-11T15:44:25Z</time>
      </trkpt>
      <trkpt lat="44.91755" lon="3.76592">
        <ele>1253.7</ele>
        <time>2024-11-11T15:44:39Z</time>
      </trkpt>
      <trkpt lat="44.9176" lon="3.76521">
        <ele>1249.85</ele>
        <time>2024-11-11T15:44:56Z</time>
      </trkpt>
      <trkpt lat="44.91782" lon="3.76502">
        <ele>1247.93</ele>
        <time>2024-11-11T15:45:07Z</time>
      </trkpt>
      <trkpt lat="44.91831" lon="3.7649">
        <ele>1249.37</ele>
        <time>2024-11-11T15:45:17Z</time>
      </trkpt>
      <trkpt lat="44.9191" lon="3.76461">
        <ele>1250.81</ele>
        <time>2024-11-11T15:45:33Z</time>
      </trkpt>
      <trkpt lat="44.91984" lon="3.76431">
        <ele>1251.29</ele>
        <time>2024-11-11T15:45:48Z</time>
      </trkpt>
      <trkpt lat="44.92053" lon="3.76405">
        <ele>1252.25</ele>
        <time>2024-11-11T15:46:03Z</time>
      </trkpt>
      <trkpt lat="44.92106" lon="3.76394">
        <ele>1255.62</ele>
        <time>2024-11-11T15:46:14Z</time>
      </trkpt>
      <trkpt lat="44.92181" lon="3.76374">
        <ele>1258.5</ele>
        <time>2024-11-11T15:46:28Z</time>
      </trkpt>
      <trkpt lat="44.92264" lon="3.76345">
        <ele>1265.71</ele>
        <time>2024-11-11T15:46:42Z</time>
      </trkpt>
      <trkpt lat="44.92348" lon="3.7632">
        <ele>1274.36</ele>
        <time>2024-11-11T15:46:56Z</time>
      </trkpt>
      <trkpt lat="44.92383" lon="3.76307">
        <ele>1278.21</ele>
        <time>2024-11-11T15:47:03Z</time>
      </trkpt>
      <trkpt lat="44.92388" lon="3.76304">
        <ele>1278.69</ele>
        <time>2024-11-11T15:47:04Z</time>
      </trkpt>
      <trkpt lat="44.92468" lon="3.76272">
        <ele>1281.09</ele>
        <time>2024-11-11T15:47:19Z</time>
      </trkpt>
      <trkpt lat="44.92557" lon="3.76226">
        <ele>1284.46</ele>
        <time>2024-11-11T15:47:37Z</time>
      </trkpt>
      <trkpt lat="44.92653" lon="3.76177">
        <ele>1284.94</ele>
        <time>2024-11-11T15:47:56Z</time>
      </trkpt>
      <trkpt lat="44.92739" lon="3.76142">
        <ele>1284.94</ele>
        <time>2024-11-11T15:48:12Z</time>
      </trkpt>
      <trkpt lat="44.92818" lon="3.76116">
        <ele>1283.98</ele>
        <time>2024-11-11T15:48:27Z</time>
      </trkpt>
      <trkpt lat="44.92896" lon="3.76091">
        <ele>1281.57</ele>
        <time>2024-11-11T15:48:42Z</time>
      </trkpt>
      <trkpt lat="44.92956" lon="3.76071">
        <ele>1279.65</ele>
        <time>2024-11-11T15:48:54Z</time>
      </trkpt>
      <trkpt lat="44.93028" lon="3.76045">
        <ele>1280.13</ele>
        <time>2024-11-11T15:49:08Z</time>
      </trkpt>
      <trkpt lat="44.93078" lon="3.76033">
        <ele>1281.57</ele>
        <time>2024-11-11T15:49:20Z</time>
      </trkpt>
      <trkpt lat="44.9312" lon="3.76017">
        <ele>1283.02</ele>
        <time>2024-11-11T15:49:36Z</time>
      </trkpt>
      <trkpt lat="44.93169" lon="3.76">
        <ele>1283.5</ele>
        <time>2024-11-11T15:49:52Z</time>
      </trkpt>
      <trkpt lat="44.93198" lon="3.75989">
        <ele>1283.5</ele>
        <time>2024-11-11T15:50:06Z</time>
      </trkpt>
      <trkpt lat="44.93216" lon="3.75982">
        <ele>1285.42</ele>
        <time>2024-11-11T15:50:19Z</time>
      </trkpt>
      <trkpt lat="44.93221" lon="3.75977">
        <ele>1285.9</ele>
        <time>2024-11-11T15:50:23Z</time>
      </trkpt>
      <trkpt lat="44.93223" lon="3.75977">
        <ele>1286.38</ele>
        <time>2024-11-11T15:50:24Z</time>
      </trkpt>
      <trkpt lat="44.93224" lon="3.75976">
        <ele>1286.86</ele>
        <time>2024-11-11T15:50:25Z</time>
      </trkpt>
      <trkpt lat="44.9325" lon="3.75968">
        <ele>1289.27</ele>
        <time>2024-11-11T15:50:40Z</time>
      </trkpt>
      <trkpt lat="44.93275" lon="3.7596">
        <ele>1289.75</ele>
        <time>2024-11-11T15:50:55Z</time>
      </trkpt>
      <trkpt lat="44.93292" lon="3.75949">
        <ele>1290.23</ele>
        <time>2024-11-11T15:51:07Z</time>
      </trkpt>
      <trkpt lat="44.93317" lon="3.75944">
        <ele>1292.15</ele>
        <time>2024-11-11T15:51:23Z</time>
      </trkpt>
      <trkpt lat="44.93343" lon="3.75941">
        <ele>1292.15</ele>
        <time>2024-11-11T15:51:40Z</time>
      </trkpt>
      <trkpt lat="44.93348" lon="3.75946">
        <ele>1292.15</ele>
        <time>2024-11-11T15:51:45Z</time>
      </trkpt>
      <trkpt lat="44.93348" lon="3.75947">
        <ele>1292.15</ele>
        <time>2024-11-11T15:51:46Z</time>
      </trkpt>
      <trkpt lat="44.93348" lon="3.7595">
        <ele>1292.15</ele>
        <time>2024-11-11T15:51:47Z</time>
      </trkpt>
      <trkpt lat="44.93348" lon="3.75952">
        <ele>1292.15</ele>
        <time>2024-11-11T15:51:48Z</time>
      </trkpt>
      <trkpt lat="44.93347" lon="3.75954">
        <ele>1292.15</ele>
        <time>2024-11-11T15:51:49Z</time>
      </trkpt>
      <trkpt lat="44.9334" lon="3.75986">
        <ele>1291.67</ele>
        <time>2024-11-11T15:52:05Z</time>
      </trkpt>
      <trkpt lat="44.93337" lon="3.76014">
        <ele>1291.67</ele>
        <time>2024-11-11T15:52:19Z</time>
      </trkpt>
      <trkpt lat="44.93331" lon="3.76041">
        <ele>1292.15</ele>
        <time>2024-11-11T15:52:32Z</time>
      </trkpt>
      <trkpt lat="44.93321" lon="3.76074">
        <ele>1292.63</ele>
        <time>2024-11-11T15:52:50Z</time>
      </trkpt>
      <trkpt lat="44.93312" lon="3.76106">
        <ele>1291.19</ele>
        <time>2024-11-11T15:53:09Z</time>
      </trkpt>
      <trkpt lat="44.93305" lon="3.76137">
        <ele>1291.19</ele>
        <time>2024-11-11T15:53:24Z</time>
      </trkpt>
      <trkpt lat="44.93299" lon="3.76181">
        <ele>1296.96</ele>
        <time>2024-11-11T15:53:45Z</time>
      </trkpt>
      <trkpt lat="44.93293" lon="3.76228">
        <ele>1298.88</ele>
        <time>2024-11-11T15:54:02Z</time>
      </trkpt>
      <trkpt lat="44.9328" lon="3.76281">
        <ele>1303.69</ele>
        <time>2024-11-11T15:54:17Z</time>
      </trkpt>
      <trkpt lat="44.93275" lon="3.76313">
        <ele>1303.69</ele>
        <time>2024-11-11T15:54:34Z</time>
      </trkpt>
      <trkpt lat="44.93271" lon="3.76345">
        <ele>1304.17</ele>
        <time>2024-11-11T15:54:50Z</time>
      </trkpt>
      <trkpt lat="44.93271" lon="3.76387">
        <ele>1304.17</ele>
        <time>2024-11-11T15:55:06Z</time>
      </trkpt>
      <trkpt lat="44.93273" lon="3.76391">
        <ele>1303.69</ele>
        <time>2024-11-11T15:55:07Z</time>
      </trkpt>
      <trkpt lat="44.93274" lon="3.76394">
        <ele>1303.69</ele>
        <time>2024-11-11T15:55:08Z</time>
      </trkpt>
      <trkpt lat="44.93289" lon="3.76401">
        <ele>1302.24</ele>
        <time>2024-11-11T15:55:23Z</time>
      </trkpt>
      <trkpt lat="44.93294" lon="3.76399">
        <ele>1302.72</ele>
        <time>2024-11-11T15:55:27Z</time>
      </trkpt>
      <trkpt lat="44.93299" lon="3.76393">
        <ele>1302.72</ele>
        <time>2024-11-11T15:55:32Z</time>
      </trkpt>
      <trkpt lat="44.93301" lon="3.76393">
        <ele>1302.72</ele>
        <time>2024-11-11T15:55:33Z</time>
      </trkpt>
      <trkpt lat="44.93302" lon="3.76392">
        <ele>1302.72</ele>
        <time>2024-11-11T15:55:34Z</time>
      </trkpt>
      <trkpt lat="44.93303" lon="3.76392">
        <ele>1302.72</ele>
        <time>2024-11-11T15:55:35Z</time>
      </trkpt>
      <trkpt lat="44.93304" lon="3.76391">
        <ele>1302.24</ele>
        <time>2024-11-11T15:55:36Z</time>
      </trkpt>
      <trkpt lat="44.93321" lon="3.76389">
        <ele>1307.53</ele>
        <time>2024-11-11T15:55:52Z</time>
      </trkpt>
      <trkpt lat="44.93343" lon="3.76384">
        <ele>1309.93</ele>
        <time>2024-11-11T15:56:07Z</time>
      </trkpt>
      <trkpt lat="44.93365" lon="3.76386">
        <ele>1309.93</ele>
        <time>2024-11-11T15:56:24Z</time>
      </trkpt>
      <trkpt lat="44.93391" lon="3.76391">
        <ele>1307.53</ele>
        <time>2024-11-11T15:56:43Z</time>
      </trkpt>
      <trkpt lat="44.93392" lon="3.76392">
        <ele>1307.05</ele>
        <time>2024-11-11T15:56:44Z</time>
      </trkpt>
      <trkpt lat="44.93422" lon="3.76409">
        <ele>1308.49</ele>
        <time>2024-11-11T15:56:57Z</time>
      </trkpt>
      <trkpt lat="44.93436" lon="3.76426">
        <ele>1308.01</ele>
        <time>2024-11-11T15:57:11Z</time>
      </trkpt>
      <trkpt lat="44.93437" lon="3.76429">
        <ele>1307.05</ele>
        <time>2024-11-11T15:57:12Z</time>
      </trkpt>
      <trkpt lat="44.93438" lon="3.76431">
        <ele>1306.57</ele>
        <time>2024-11-11T15:57:13Z</time>
      </trkpt>
      <trkpt lat="44.9344" lon="3.76434">
        <ele>1305.61</ele>
        <time>2024-11-11T15:57:14Z</time>
      </trkpt>
      <trkpt lat="44.93442" lon="3.76436">
        <ele>1304.65</ele>
        <time>2024-11-11T15:57:15Z</time>
      </trkpt>
      <trkpt lat="44.93444" lon="3.76439">
        <ele>1304.65</ele>
        <time>2024-11-11T15:57:16Z</time>
      </trkpt>
      <trkpt lat="44.93464" lon="3.76464">
        <ele>1308.01</ele>
        <time>2024-11-11T15:57:31Z</time>
      </trkpt>
      <trkpt lat="44.93482" lon="3.76479">
        <ele>1311.38</ele>
        <time>2024-11-11T15:57:48Z</time>
      </trkpt>
      <trkpt lat="44.93493" lon="3.76478">
        <ele>1313.3</ele>
        <time>2024-11-11T15:57:53Z</time>
      </trkpt>
      <trkpt lat="44.93511" lon="3.76457">
        <ele>1317.14</ele>
        <time>2024-11-11T15:58:12Z</time>
      </trkpt>
      <trkpt lat="44.93522" lon="3.76426">
        <ele>1318.59</ele>
        <time>2024-11-11T15:58:31Z</time>
      </trkpt>
      <trkpt lat="44.93526" lon="3.76384">
        <ele>1319.55</ele>
        <time>2024-11-11T15:58:45Z</time>
      </trkpt>
      <trkpt lat="44.93525" lon="3.76335">
        <ele>1325.31</ele>
        <time>2024-11-11T15:59:04Z</time>
      </trkpt>
      <trkpt lat="44.93532" lon="3.76303">
        <ele>1324.83</ele>
        <time>2024-11-11T15:59:24Z</time>
      </trkpt>
      <trkpt lat="44.93545" lon="3.76288">
        <ele>1325.31</ele>
        <time>2024-11-11T15:59:38Z</time>
      </trkpt>
      <trkpt lat="44.93547" lon="3.76287">
        <ele>1325.31</ele>
        <time>2024-11-11T15:59:39Z</time>
      </trkpt>
      <trkpt lat="44.9355" lon="3.76285">
        <ele>1325.31</ele>
        <time>2024-11-11T15:59:40Z</time>
      </trkpt>
      <trkpt lat="44.93552" lon="3.76285">
        <ele>1325.31</ele>
        <time>2024-11-11T15:59:41Z</time>
      </trkpt>
      <trkpt lat="44.93554" lon="3.76286">
        <ele>1325.8</ele>
        <time>2024-11-11T15:59:42Z</time>
      </trkpt>
      <trkpt lat="44.93556" lon="3.76287">
        <ele>1325.8</ele>
        <time>2024-11-11T15:59:43Z</time>
      </trkpt>
      <trkpt lat="44.93569" lon="3.76304">
        <ele>1327.72</ele>
        <time>2024-11-11T15:59:55Z</time>
      </trkpt>
      <trkpt lat="44.9357" lon="3.76306">
        <ele>1327.72</ele>
        <time>2024-11-11T15:59:56Z</time>
      </trkpt>
      <trkpt lat="44.93577" lon="3.76333">
        <ele>1331.08</ele>
        <time>2024-11-11T16:00:11Z</time>
      </trkpt>
      <trkpt lat="44.93587" lon="3.7636">
        <ele>1331.56</ele>
        <time>2024-11-11T16:00:26Z</time>
      </trkpt>
      <trkpt lat="44.936" lon="3.76393">
        <ele>1332.52</ele>
        <time>2024-11-11T16:00:46Z</time>
      </trkpt>
      <trkpt lat="44.93617" lon="3.76423">
        <ele>1335.89</ele>
        <time>2024-11-11T16:01:01Z</time>
      </trkpt>
      <trkpt lat="44.93628" lon="3.76451">
        <ele>1339.25</ele>
        <time>2024-11-11T16:01:19Z</time>
      </trkpt>
      <trkpt lat="44.93641" lon="3.76477">
        <ele>1342.62</ele>
        <time>2024-11-11T16:01:34Z</time>
      </trkpt>
      <trkpt lat="44.93646" lon="3.76501">
        <ele>1342.62</ele>
        <time>2024-11-11T16:01:50Z</time>
      </trkpt>
      <trkpt lat="44.93646" lon="3.76506">
        <ele>1342.14</ele>
        <time>2024-11-11T16:01:53Z</time>
      </trkpt>
      <trkpt lat="44.9365" lon="3.76541">
        <ele>1338.29</ele>
        <time>2024-11-11T16:02:11Z</time>
      </trkpt>
      <trkpt lat="44.93651" lon="3.76581">
        <ele>1335.89</ele>
        <time>2024-11-11T16:02:27Z</time>
      </trkpt>
      <trkpt lat="44.93656" lon="3.76615">
        <ele>1337.81</ele>
        <time>2024-11-11T16:02:41Z</time>
      </trkpt>
      <trkpt lat="44.93665" lon="3.76664">
        <ele>1342.62</ele>
        <time>2024-11-11T16:02:59Z</time>
      </trkpt>
      <trkpt lat="44.93665" lon="3.76688">
        <ele>1347.43</ele>
        <time>2024-11-11T16:03:11Z</time>
      </trkpt>
      <trkpt lat="44.93665" lon="3.7669">
        <ele>1347.91</ele>
        <time>2024-11-11T16:03:12Z</time>
      </trkpt>
      <trkpt lat="44.93664" lon="3.76692">
        <ele>1347.91</ele>
        <time>2024-11-11T16:03:13Z</time>
      </trkpt>
      <trkpt lat="44.93664" lon="3.76695">
        <ele>1347.91</ele>
        <time>2024-11-11T16:03:14Z</time>
      </trkpt>
      <trkpt lat="44.93663" lon="3.76697">
        <ele>1347.91</ele>
        <time>2024-11-11T16:03:15Z</time>
      </trkpt>
      <trkpt lat="44.9366" lon="3.76715">
        <ele>1347.91</ele>
        <time>2024-11-11T16:03:26Z</time>
      </trkpt>
      <trkpt lat="44.93668" lon="3.7675">
        <ele>1346.94</ele>
        <time>2024-11-11T16:03:40Z</time>
      </trkpt>
      <trkpt lat="44.93673" lon="3.76783">
        <ele>1347.91</ele>
        <time>2024-11-11T16:03:53Z</time>
      </trkpt>
      <trkpt lat="44.93676" lon="3.76792">
        <ele>1347.91</ele>
        <time>2024-11-11T16:03:57Z</time>
      </trkpt>
      <trkpt lat="44.93677" lon="3.76794">
        <ele>1347.91</ele>
        <time>2024-11-11T16:03:58Z</time>
      </trkpt>
      <trkpt lat="44.93691" lon="3.76822">
        <ele>1346.46</ele>
        <time>2024-11-11T16:04:13Z</time>
      </trkpt>
      <trkpt lat="44.93714" lon="3.76844">
        <ele>1347.91</ele>
        <time>2024-11-11T16:04:33Z</time>
      </trkpt>
      <trkpt lat="44.93745" lon="3.76861">
        <ele>1345.98</ele>
        <time>2024-11-11T16:04:51Z</time>
      </trkpt>
      <trkpt lat="44.93774" lon="3.7687">
        <ele>1343.58</ele>
        <time>2024-11-11T16:05:09Z</time>
      </trkpt>
      <trkpt lat="44.93801" lon="3.76879">
        <ele>1339.25</ele>
        <time>2024-11-11T16:05:27Z</time>
      </trkpt>
      <trkpt lat="44.93824" lon="3.76899">
        <ele>1339.25</ele>
        <time>2024-11-11T16:05:43Z</time>
      </trkpt>
      <trkpt lat="44.93825" lon="3.769">
        <ele>1339.25</ele>
        <time>2024-11-11T16:05:44Z</time>
      </trkpt>
      <trkpt lat="44.93826" lon="3.76902">
        <ele>1338.77</ele>
        <time>2024-11-11T16:05:45Z</time>
      </trkpt>
      <trkpt lat="44.93838" lon="3.76923">
        <ele>1337.81</ele>
        <time>2024-11-11T16:06:00Z</time>
      </trkpt>
      <trkpt lat="44.93835" lon="3.76924">
        <ele>1337.81</ele>
        <time>2024-11-11T16:06:02Z</time>
      </trkpt>
      <trkpt lat="44.93834" lon="3.76924">
        <ele>1337.33</ele>
        <time>2024-11-11T16:06:03Z</time>
      </trkpt>
      <trkpt lat="44.93832" lon="3.76921">
        <ele>1337.33</ele>
        <time>2024-11-11T16:06:04Z</time>
      </trkpt>
      <trkpt lat="44.93831" lon="3.76919">
        <ele>1338.29</ele>
        <time>2024-11-11T16:06:05Z</time>
      </trkpt>
      <trkpt lat="44.9381" lon="3.76895">
        <ele>1338.77</ele>
        <time>2024-11-11T16:06:24Z</time>
      </trkpt>
      <trkpt lat="44.93803" lon="3.76896">
        <ele>1338.29</ele>
        <time>2024-11-11T16:06:29Z</time>
      </trkpt>
      <trkpt lat="44.93801" lon="3.76897">
        <ele>1337.81</ele>
        <time>2024-11-11T16:06:30Z</time>
      </trkpt>
      <trkpt lat="44.938" lon="3.76897">
        <ele>1337.81</ele>
        <time>2024-11-11T16:06:31Z</time>
      </trkpt>
      <trkpt lat="44.93798" lon="3.76898">
        <ele>1338.29</ele>
        <time>2024-11-11T16:06:32Z</time>
      </trkpt>
      <trkpt lat="44.93798" lon="3.769">
        <ele>1338.29</ele>
        <time>2024-11-11T16:06:33Z</time>
      </trkpt>
      <trkpt lat="44.93777" lon="3.76914">
        <ele>1337.33</ele>
        <time>2024-11-11T16:06:44Z</time>
      </trkpt>
      <trkpt lat="44.93757" lon="3.76929">
        <ele>1334.45</ele>
        <time>2024-11-11T16:06:59Z</time>
      </trkpt>
      <trkpt lat="44.93742" lon="3.76953">
        <ele>1329.16</ele>
        <time>2024-11-11T16:07:13Z</time>
      </trkpt>
      <trkpt lat="44.93734" lon="3.76976">
        <ele>1323.39</ele>
        <time>2024-11-11T16:07:26Z</time>
      </trkpt>
      <trkpt lat="44.93734" lon="3.76984">
        <ele>1323.39</ele>
        <time>2024-11-11T16:07:29Z</time>
      </trkpt>
      <trkpt lat="44.93737" lon="3.77001">
        <ele>1322.91</ele>
        <time>2024-11-11T16:07:36Z</time>
      </trkpt>
      <trkpt lat="44.93752" lon="3.77033">
        <ele>1325.8</ele>
        <time>2024-11-11T16:07:52Z</time>
      </trkpt>
      <trkpt lat="44.93767" lon="3.77049">
        <ele>1324.35</ele>
        <time>2024-11-11T16:08:05Z</time>
      </trkpt>
      <trkpt lat="44.93783" lon="3.77064">
        <ele>1322.91</ele>
        <time>2024-11-11T16:08:17Z</time>
      </trkpt>
      <trkpt lat="44.93792" lon="3.77067">
        <ele>1322.43</ele>
        <time>2024-11-11T16:08:23Z</time>
      </trkpt>
      <trkpt lat="44.938" lon="3.77083">
        <ele>1321.95</ele>
        <time>2024-11-11T16:08:31Z</time>
      </trkpt>
      <trkpt lat="44.93816" lon="3.77102">
        <ele>1320.51</ele>
        <time>2024-11-11T16:08:46Z</time>
      </trkpt>
      <trkpt lat="44.93818" lon="3.77103">
        <ele>1319.55</ele>
        <time>2024-11-11T16:08:48Z</time>
      </trkpt>
      <trkpt lat="44.93822" lon="3.77108">
        <ele>1320.03</ele>
        <time>2024-11-11T16:08:52Z</time>
      </trkpt>
      <trkpt lat="44.93824" lon="3.77112">
        <ele>1320.03</ele>
        <time>2024-11-11T16:08:54Z</time>
      </trkpt>
      <trkpt lat="44.93826" lon="3.77122">
        <ele>1320.99</ele>
        <time>2024-11-11T16:08:59Z</time>
      </trkpt>
      <trkpt lat="44.93825" lon="3.77155">
        <ele>1319.55</ele>
        <time>2024-11-11T16:09:13Z</time>
      </trkpt>
      <trkpt lat="44.93823" lon="3.77184">
        <ele>1320.51</ele>
        <time>2024-11-11T16:09:27Z</time>
      </trkpt>
      <trkpt lat="44.93824" lon="3.77225">
        <ele>1316.66</ele>
        <time>2024-11-11T16:09:45Z</time>
      </trkpt>
      <trkpt lat="44.93823" lon="3.7727">
        <ele>1315.7</ele>
        <time>2024-11-11T16:10:01Z</time>
      </trkpt>
      <trkpt lat="44.9382" lon="3.77291">
        <ele>1315.22</ele>
        <time>2024-11-11T16:10:15Z</time>
      </trkpt>
      <trkpt lat="44.9382" lon="3.77301">
        <ele>1315.7</ele>
        <time>2024-11-11T16:10:19Z</time>
      </trkpt>
      <trkpt lat="44.93819" lon="3.77306">
        <ele>1314.74</ele>
        <time>2024-11-11T16:10:34Z</time>
      </trkpt>
      <trkpt lat="44.93822" lon="3.77308">
        <ele>1313.78</ele>
        <time>2024-11-11T16:10:38Z</time>
      </trkpt>
      <trkpt lat="44.93841" lon="3.77326">
        <ele>1314.26</ele>
        <time>2024-11-11T16:10:53Z</time>
      </trkpt>
      <trkpt lat="44.93861" lon="3.77342">
        <ele>1313.3</ele>
        <time>2024-11-11T16:11:10Z</time>
      </trkpt>
      <trkpt lat="44.93881" lon="3.77367">
        <ele>1311.86</ele>
        <time>2024-11-11T16:11:24Z</time>
      </trkpt>
      <trkpt lat="44.93895" lon="3.7739">
        <ele>1310.41</ele>
        <time>2024-11-11T16:11:39Z</time>
      </trkpt>
      <trkpt lat="44.93903" lon="3.77389">
        <ele>1310.9</ele>
        <time>2024-11-11T16:11:51Z</time>
      </trkpt>
      <trkpt lat="44.93929" lon="3.77395">
        <ele>1308.97</ele>
        <time>2024-11-11T16:12:08Z</time>
      </trkpt>
      <trkpt lat="44.93935" lon="3.77397">
        <ele>1308.01</ele>
        <time>2024-11-11T16:12:13Z</time>
      </trkpt>
      <trkpt lat="44.93958" lon="3.77408">
        <ele>1303.2</ele>
        <time>2024-11-11T16:12:32Z</time>
      </trkpt>
      <trkpt lat="44.93961" lon="3.77408">
        <ele>1302.72</ele>
        <time>2024-11-11T16:12:33Z</time>
      </trkpt>
      <trkpt lat="44.93983" lon="3.77415">
        <ele>1299.36</ele>
        <time>2024-11-11T16:12:50Z</time>
      </trkpt>
      <trkpt lat="44.93985" lon="3.77416">
        <ele>1299.36</ele>
        <time>2024-11-11T16:12:51Z</time>
      </trkpt>
      <trkpt lat="44.9399" lon="3.77423">
        <ele>1298.88</ele>
        <time>2024-11-11T16:12:55Z</time>
      </trkpt>
      <trkpt lat="44.93998" lon="3.77437">
        <ele>1297.92</ele>
        <time>2024-11-11T16:13:02Z</time>
      </trkpt>
      <trkpt lat="44.94016" lon="3.77459">
        <ele>1295.51</ele>
        <time>2024-11-11T16:13:18Z</time>
      </trkpt>
      <trkpt lat="44.9403" lon="3.7745">
        <ele>1293.11</ele>
        <time>2024-11-11T16:13:35Z</time>
      </trkpt>
      <trkpt lat="44.94032" lon="3.77476">
        <ele>1291.19</ele>
        <time>2024-11-11T16:13:53Z</time>
      </trkpt>
      <trkpt lat="44.94039" lon="3.77492">
        <ele>1287.82</ele>
        <time>2024-11-11T16:14:04Z</time>
      </trkpt>
      <trkpt lat="44.94054" lon="3.77515">
        <ele>1278.21</ele>
        <time>2024-11-11T16:14:23Z</time>
      </trkpt>
      <trkpt lat="44.94069" lon="3.77533">
        <ele>1272.44</ele>
        <time>2024-11-11T16:14:37Z</time>
      </trkpt>
      <trkpt lat="44.94084" lon="3.77551">
        <ele>1264.75</ele>
        <time>2024-11-11T16:14:54Z</time>
      </trkpt>
      <trkpt lat="44.94097" lon="3.77568">
        <ele>1258.02</ele>
        <time>2024-11-11T16:15:09Z</time>
      </trkpt>
      <trkpt lat="44.94106" lon="3.77586">
        <ele>1257.06</ele>
        <time>2024-11-11T16:15:22Z</time>
      </trkpt>
      <trkpt lat="44.94122" lon="3.77607">
        <ele>1255.62</ele>
        <time>2024-11-11T16:15:39Z</time>
      </trkpt>
      <trkpt lat="44.94135" lon="3.77622">
        <ele>1254.18</ele>
        <time>2024-11-11T16:15:56Z</time>
      </trkpt>
      <trkpt lat="44.94139" lon="3.77627">
        <ele>1253.22</ele>
        <time>2024-11-11T16:16:03Z</time>
      </trkpt>
      <trkpt lat="44.94156" lon="3.77641">
        <ele>1249.85</ele>
        <time>2024-11-11T16:16:18Z</time>
      </trkpt>
      <trkpt lat="44.94167" lon="3.77647">
        <ele>1247.45</ele>
        <time>2024-11-11T16:16:32Z</time>
      </trkpt>
      <trkpt lat="44.94186" lon="3.7766">
        <ele>1246.01</ele>
        <time>2024-11-11T16:16:51Z</time>
      </trkpt>
      <trkpt lat="44.94207" lon="3.77681">
        <ele>1238.8</ele>
        <time>2024-11-11T16:17:08Z</time>
      </trkpt>
      <trkpt lat="44.94222" lon="3.77698">
        <ele>1232.55</ele>
        <time>2024-11-11T16:17:28Z</time>
      </trkpt>
      <trkpt lat="44.94232" lon="3.77714">
        <ele>1227.74</ele>
        <time>2024-11-11T16:17:45Z</time>
      </trkpt>
      <trkpt lat="44.94243" lon="3.77711">
        <ele>1221.97</ele>
        <time>2024-11-11T16:18:03Z</time>
      </trkpt>
      <trkpt lat="44.94256" lon="3.77702">
        <ele>1219.57</ele>
        <time>2024-11-11T16:18:18Z</time>
      </trkpt>
      <trkpt lat="44.9428" lon="3.77704">
        <ele>1216.69</ele>
        <time>2024-11-11T16:18:39Z</time>
      </trkpt>
      <trkpt lat="44.94302" lon="3.77701">
        <ele>1214.76</ele>
        <time>2024-11-11T16:18:56Z</time>
      </trkpt>
      <trkpt lat="44.94328" lon="3.77694">
        <ele>1211.88</ele>
        <time>2024-11-11T16:19:15Z</time>
      </trkpt>
      <trkpt lat="44.94345" lon="3.77685">
        <ele>1209.48</ele>
        <time>2024-11-11T16:19:32Z</time>
      </trkpt>
      <trkpt lat="44.9436" lon="3.77678">
        <ele>1207.55</ele>
        <time>2024-11-11T16:19:42Z</time>
      </trkpt>
      <trkpt lat="44.94387" lon="3.7767">
        <ele>1203.23</ele>
        <time>2024-11-11T16:20:02Z</time>
      </trkpt>
      <trkpt lat="44.94404" lon="3.77677">
        <ele>1195.06</ele>
        <time>2024-11-11T16:20:23Z</time>
      </trkpt>
      <trkpt lat="44.94426" lon="3.77682">
        <ele>1189.29</ele>
        <time>2024-11-11T16:20:41Z</time>
      </trkpt>
      <trkpt lat="44.94447" lon="3.77685">
        <ele>1184.48</ele>
        <time>2024-11-11T16:20:59Z</time>
      </trkpt>
      <trkpt lat="44.94469" lon="3.77676">
        <ele>1181.12</ele>
        <time>2024-11-11T16:21:17Z</time>
      </trkpt>
      <trkpt lat="44.94487" lon="3.7765">
        <ele>1179.19</ele>
        <time>2024-11-11T16:21:35Z</time>
      </trkpt>
      <trkpt lat="44.94502" lon="3.77623">
        <ele>1177.27</ele>
        <time>2024-11-11T16:21:53Z</time>
      </trkpt>
      <trkpt lat="44.94512" lon="3.77613">
        <ele>1177.75</ele>
        <time>2024-11-11T16:22:12Z</time>
      </trkpt>
      <trkpt lat="44.94516" lon="3.77586">
        <ele>1177.75</ele>
        <time>2024-11-11T16:22:31Z</time>
      </trkpt>
      <trkpt lat="44.94527" lon="3.77574">
        <ele>1177.75</ele>
        <time>2024-11-11T16:22:45Z</time>
      </trkpt>
      <trkpt lat="44.94531" lon="3.77575">
        <ele>1178.23</ele>
        <time>2024-11-11T16:23:04Z</time>
      </trkpt>
      <trkpt lat="44.94526" lon="3.77575">
        <ele>1173.91</ele>
        <time>2024-11-11T16:23:23Z</time>
      </trkpt>
      <trkpt lat="44.94534" lon="3.77571">
        <ele>1171.02</ele>
        <time>2024-11-11T16:23:42Z</time>
      </trkpt>
      <trkpt lat="44.94546" lon="3.77557">
        <ele>1170.06</ele>
        <time>2024-11-11T16:23:57Z</time>
      </trkpt>
      <trkpt lat="44.94564" lon="3.77542">
        <ele>1170.54</ele>
        <time>2024-11-11T16:24:12Z</time>
      </trkpt>
      <trkpt lat="44.94561" lon="3.77534">
        <ele>1169.1</ele>
        <time>2024-11-11T16:24:25Z</time>
      </trkpt>
      <trkpt lat="44.9455" lon="3.77531">
        <ele>1168.14</ele>
        <time>2024-11-11T16:24:51Z</time>
      </trkpt>
      <trkpt lat="44.94549" lon="3.77529">
        <ele>1169.1</ele>
        <time>2024-11-11T16:25:08Z</time>
      </trkpt>
      <trkpt lat="44.9455" lon="3.77532">
        <ele>1169.58</ele>
        <time>2024-11-11T16:25:33Z</time>
      </trkpt>
      <trkpt lat="44.94561" lon="3.77536">
        <ele>1169.58</ele>
        <time>2024-11-11T16:25:48Z</time>
      </trkpt>
      <trkpt lat="44.94557" lon="3.77536">
        <ele>1173.43</ele>
        <time>2024-11-11T16:26:08Z</time>
      </trkpt>
      <trkpt lat="44.94556" lon="3.77533">
        <ele>1170.54</ele>
        <time>2024-11-11T16:26:29Z</time>
      </trkpt>
      <trkpt lat="44.94551" lon="3.77527">
        <ele>1167.66</ele>
        <time>2024-11-11T16:26:49Z</time>
      </trkpt>
      <trkpt lat="44.94559" lon="3.77536">
        <ele>1164.77</ele>
        <time>2024-11-11T16:27:04Z</time>
      </trkpt>
      <trkpt lat="44.94567" lon="3.77532">
        <ele>1163.33</ele>
        <time>2024-11-11T16:27:13Z</time>
      </trkpt>
      <trkpt lat="44.94569" lon="3.77531">
        <ele>1162.37</ele>
        <time>2024-11-11T16:27:24Z</time>
      </trkpt>
      <trkpt lat="44.94563" lon="3.77537">
        <ele>1160.93</ele>
        <time>2024-11-11T16:27:40Z</time>
      </trkpt>
      <trkpt lat="44.9456" lon="3.77532">
        <ele>1160.93</ele>
        <time>2024-11-11T16:27:52Z</time>
      </trkpt>
      <trkpt lat="44.94555" lon="3.77526">
        <ele>1156.6</ele>
        <time>2024-11-11T16:28:12Z</time>
      </trkpt>
      <trkpt lat="44.94553" lon="3.77532">
        <ele>1157.08</ele>
        <time>2024-11-11T16:28:33Z</time>
      </trkpt>
      <trkpt lat="44.94547" lon="3.77526">
        <ele>1158.05</ele>
        <time>2024-11-11T16:28:49Z</time>
      </trkpt>
      <trkpt lat="44.94549" lon="3.77526">
        <ele>1158.53</ele>
        <time>2024-11-11T16:29:04Z</time>
      </trkpt>
      <trkpt lat="44.94552" lon="3.7753">
        <ele>1158.53</ele>
        <time>2024-11-11T16:29:31Z</time>
      </trkpt>
      <trkpt lat="44.94552" lon="3.77523">
        <ele>1159.01</ele>
        <time>2024-11-11T16:29:51Z</time>
      </trkpt>
      <trkpt lat="44.94554" lon="3.77529">
        <ele>1159.97</ele>
        <time>2024-11-11T16:30:07Z</time>
      </trkpt>
      <trkpt lat="44.94554" lon="3.77529">
        <ele>1156.12</ele>
        <time>2024-11-11T16:30:27Z</time>
      </trkpt>
      <trkpt lat="44.94556" lon="3.77524">
        <ele>1158.53</ele>
        <time>2024-11-11T16:30:45Z</time>
      </trkpt>
      <trkpt lat="44.94564" lon="3.77529">
        <ele>1159.97</ele>
        <time>2024-11-11T16:31:01Z</time>
      </trkpt>
      <trkpt lat="44.9456" lon="3.7754">
        <ele>1160.45</ele>
        <time>2024-11-11T16:31:15Z</time>
      </trkpt>
      <trkpt lat="44.94555" lon="3.77534">
        <ele>1160.45</ele>
        <time>2024-11-11T16:31:30Z</time>
      </trkpt>
      <trkpt lat="44.94558" lon="3.77536">
        <ele>1161.89</ele>
        <time>2024-11-11T16:31:48Z</time>
      </trkpt>
      <trkpt lat="44.94557" lon="3.77539">
        <ele>1164.29</ele>
        <time>2024-11-11T16:32:07Z</time>
      </trkpt>
      <trkpt lat="44.94556" lon="3.77531">
        <ele>1163.81</ele>
        <time>2024-11-11T16:32:29Z</time>
      </trkpt>
      <trkpt lat="44.94557" lon="3.77531">
        <ele>1163.81</ele>
        <time>2024-11-11T16:32:46Z</time>
      </trkpt>
      <trkpt lat="44.94557" lon="3.77535">
        <ele>1159.97</ele>
        <time>2024-11-11T16:33:02Z</time>
      </trkpt>
      <trkpt lat="44.94556" lon="3.77532">
        <ele>1158.05</ele>
        <time>2024-11-11T16:33:17Z</time>
      </trkpt>
      <trkpt lat="44.94555" lon="3.77529">
        <ele>1157.56</ele>
        <time>2024-11-11T16:33:37Z</time>
      </trkpt>
      <trkpt lat="44.94556" lon="3.77535">
        <ele>1159.49</ele>
        <time>2024-11-11T16:33:57Z</time>
      </trkpt>
      <trkpt lat="44.94557" lon="3.77536">
        <ele>1163.33</ele>
        <time>2024-11-11T16:34:13Z</time>
      </trkpt>
      <trkpt lat="44.94556" lon="3.77534">
        <ele>1166.22</ele>
        <time>2024-11-11T16:34:30Z</time>
      </trkpt>
      <trkpt lat="44.94554" lon="3.77533">
        <ele>1166.22</ele>
        <time>2024-11-11T16:34:53Z</time>
      </trkpt>
      <trkpt lat="44.94557" lon="3.77532">
        <ele>1164.77</ele>
        <time>2024-11-11T16:35:15Z</time>
      </trkpt>
      <trkpt lat="44.94558" lon="3.77533">
        <ele>1163.81</ele>
        <time>2024-11-11T16:35:37Z</time>
      </trkpt>
      <trkpt lat="44.94559" lon="3.77534">
        <ele>1164.77</ele>
        <time>2024-11-11T16:35:56Z</time>
      </trkpt>
      <trkpt lat="44.94558" lon="3.77536">
        <ele>1161.89</ele>
        <time>2024-11-11T16:36:21Z</time>
      </trkpt>
      <trkpt lat="44.94555" lon="3.77535">
        <ele>1159.97</ele>
        <time>2024-11-11T16:36:42Z</time>
      </trkpt>
      <trkpt lat="44.94551" lon="3.77536">
        <ele>1158.05</ele>
        <time>2024-11-11T16:37:01Z</time>
      </trkpt>
      <trkpt lat="44.94555" lon="3.77532">
        <ele>1158.53</ele>
        <time>2024-11-11T16:37:16Z</time>
      </trkpt>
      <trkpt lat="44.94554" lon="3.77533">
        <ele>1159.01</ele>
        <time>2024-11-11T16:37:33Z</time>
      </trkpt>
      <trkpt lat="44.94557" lon="3.77533">
        <ele>1160.93</ele>
        <time>2024-11-11T16:37:52Z</time>
      </trkpt>
      <trkpt lat="44.94557" lon="3.7753">
        <ele>1160.93</ele>
        <time>2024-11-11T16:38:11Z</time>
      </trkpt>
      <trkpt lat="44.94557" lon="3.77532">
        <ele>1158.05</ele>
        <time>2024-11-11T16:38:27Z</time>
      </trkpt>
      <trkpt lat="44.94557" lon="3.77529">
        <ele>1157.56</ele>
        <time>2024-11-11T16:38:43Z</time>
      </trkpt>
      <trkpt lat="44.94559" lon="3.77534">
        <ele>1159.01</ele>
        <time>2024-11-11T16:39:02Z</time>
      </trkpt>
      <trkpt lat="44.9456" lon="3.77533">
        <ele>1159.97</ele>
        <time>2024-11-11T16:39:17Z</time>
      </trkpt>
      <trkpt lat="44.9456" lon="3.77531">
        <ele>1159.97</ele>
        <time>2024-11-11T16:39:35Z</time>
      </trkpt>
      <trkpt lat="44.94563" lon="3.77533">
        <ele>1161.89</ele>
        <time>2024-11-11T16:40:09Z</time>
      </trkpt>
      <trkpt lat="44.9456" lon="3.77533">
        <ele>1161.41</ele>
        <time>2024-11-11T16:40:29Z</time>
      </trkpt>
      <trkpt lat="44.9456" lon="3.77532">
        <ele>1159.97</ele>
        <time>2024-11-11T16:40:40Z</time>
      </trkpt>
      <trkpt lat="44.9456" lon="3.7753">
        <ele>1159.97</ele>
        <time>2024-11-11T16:40:59Z</time>
      </trkpt>
      <trkpt lat="44.94559" lon="3.7753">
        <ele>1162.37</ele>
        <time>2024-11-11T16:41:18Z</time>
      </trkpt>
      <trkpt lat="44.9456" lon="3.77532">
        <ele>1160.45</ele>
        <time>2024-11-11T16:41:37Z</time>
      </trkpt>
      <trkpt lat="44.94562" lon="3.77525">
        <ele>1163.33</ele>
        <time>2024-11-11T16:41:52Z</time>
      </trkpt>
      <trkpt lat="44.94564" lon="3.77525">
        <ele>1161.41</ele>
        <time>2024-11-11T16:42:09Z</time>
      </trkpt>
      <trkpt lat="44.94561" lon="3.77533">
        <ele>1162.37</ele>
        <time>2024-11-11T16:42:25Z</time>
      </trkpt>
      <trkpt lat="44.9456" lon="3.77533">
        <ele>1162.85</ele>
        <time>2024-11-11T16:42:37Z</time>
      </trkpt>
      <trkpt lat="44.94563" lon="3.77533">
        <ele>1162.85</ele>
        <time>2024-11-11T16:42:55Z</time>
      </trkpt>
      <trkpt lat="44.9456" lon="3.77528">
        <ele>1161.41</ele>
        <time>2024-11-11T16:43:16Z</time>
      </trkpt>
      <trkpt lat="44.94562" lon="3.77536">
        <ele>1161.41</ele>
        <time>2024-11-11T16:43:34Z</time>
      </trkpt>
      <trkpt lat="44.94559" lon="3.77542">
        <ele>1161.41</ele>
        <time>2024-11-11T16:43:55Z</time>
      </trkpt>
      <trkpt lat="44.94561" lon="3.7754">
        <ele>1161.41</ele>
        <time>2024-11-11T16:44:17Z</time>
      </trkpt>
      <trkpt lat="44.94554" lon="3.77534">
        <ele>1163.81</ele>
        <time>2024-11-11T16:44:48Z</time>
      </trkpt>
      <trkpt lat="44.94563" lon="3.77535">
        <ele>1162.85</ele>
        <time>2024-11-11T16:45:07Z</time>
      </trkpt>
      <trkpt lat="44.94568" lon="3.77527">
        <ele>1161.41</ele>
        <time>2024-11-11T16:45:24Z</time>
      </trkpt>
      <trkpt lat="44.94562" lon="3.77513">
        <ele>1165.74</ele>
        <time>2024-11-11T16:45:43Z</time>
      </trkpt>
      <trkpt lat="44.94555" lon="3.77515">
        <ele>1164.29</ele>
        <time>2024-11-11T16:46:13Z</time>
      </trkpt>
      <trkpt lat="44.9456" lon="3.77511">
        <ele>1171.5</ele>
        <time>2024-11-11T16:46:46Z</time>
      </trkpt>
      <trkpt lat="44.94549" lon="3.7752">
        <ele>1176.31</ele>
        <time>2024-11-11T16:47:15Z</time>
      </trkpt>
      <trkpt lat="44.94566" lon="3.77526">
        <ele>1176.79</ele>
        <time>2024-11-11T16:47:50Z</time>
      </trkpt>
      <trkpt lat="44.94563" lon="3.77539">
        <ele>1176.31</ele>
        <time>2024-11-11T16:48:09Z</time>
      </trkpt>
      <trkpt lat="44.94557" lon="3.77536">
        <ele>1173.43</ele>
        <time>2024-11-11T16:48:34Z</time>
      </trkpt>
      <trkpt lat="44.9456" lon="3.77538">
        <ele>1172.95</ele>
        <time>2024-11-11T16:48:52Z</time>
      </trkpt>
      <trkpt lat="44.94557" lon="3.7754">
        <ele>1174.39</ele>
        <time>2024-11-11T16:49:10Z</time>
      </trkpt>
      <trkpt lat="44.94552" lon="3.77542">
        <ele>1173.91</ele>
        <time>2024-11-11T16:49:39Z</time>
      </trkpt>
      <trkpt lat="44.94555" lon="3.7754">
        <ele>1170.54</ele>
        <time>2024-11-11T16:49:58Z</time>
      </trkpt>
      <trkpt lat="44.94565" lon="3.77546">
        <ele>1168.62</ele>
        <time>2024-11-11T16:50:11Z</time>
      </trkpt>
      <trkpt lat="44.94562" lon="3.77549">
        <ele>1169.1</ele>
        <time>2024-11-11T16:50:15Z</time>
      </trkpt>
      <trkpt lat="44.94556" lon="3.77557">
        <ele>1168.62</ele>
        <time>2024-11-11T16:50:22Z</time>
      </trkpt>
      <trkpt lat="44.94545" lon="3.77561">
        <ele>1170.06</ele>
        <time>2024-11-11T16:50:37Z</time>
      </trkpt>
    </trkseg>
  </trk>
</gpx>